DLH648 UACC-EDDF
Flight info
| Callsign | DLH648 |
|---|---|
| Flight time | 7h 1m |
| Altitude | 38000 |
| Route | VETUB7G VETUB P574 OGANU N55 MASAV N161 GASBI N161 LEYLA N644 BADIR DCT NOLGA UG261 TBN UM11 CRM UL746 INB UL746 ODERO DCT OPT DCT ALOXU DCT GANNA DCT PATAK DCT KATQA DCT RAPET T170 VAGAB T170 GAPLA T178 KERAX KERAX5D |
| Aircraft | A346/H-SDE2E3FGHIJ3J4J5M1P2RWXYZ/LB1D1 |
Departure
| Time | 2026-04-07 08:44 |
|---|---|
| Airport | Nursultan Nazarbayev International Airport (UACC) |
Arrival
| Time | 2026-04-07 15:45 |
|---|---|
| Airport | Frankfurt Main Airport (EDDF) |
| Time | Latitude | Longitude | Altitude | Speed | Heading |
|---|---|---|---|---|---|
| 2026-04-07 07:55 | 51.02773 | 71.46464 | 1175 ft | 0 kts | 322° |
| 2026-04-07 07:57 | 51.02886 | 71.46698 | 1171 ft | 0 kts | 285° |
| 2026-04-07 08:34 | 51.02881 | 71.46718 | 1170 ft | 4 kts | 302° |
| 2026-04-07 08:35 | 51.02871 | 71.46734 | 1170 ft | 4 kts | 345° |
| 2026-04-07 08:35 | 51.02850 | 71.46733 | 1170 ft | 4 kts | 14° |
| 2026-04-07 08:35 | 51.02825 | 71.46718 | 1170 ft | 4 kts | 26° |
| 2026-04-07 08:35 | 51.02817 | 71.46712 | 1170 ft | 0 kts | 28° |
| 2026-04-07 08:37 | 51.02818 | 71.46713 | 1170 ft | 0 kts | 31° |
| 2026-04-07 08:38 | 51.02822 | 71.46719 | 1170 ft | 1 kts | 50° |
| 2026-04-07 08:38 | 51.02823 | 71.46722 | 1171 ft | 1 kts | 62° |
| 2026-04-07 08:38 | 51.02827 | 71.46739 | 1172 ft | 3 kts | 73° |
| 2026-04-07 08:38 | 51.02825 | 71.46778 | 1172 ft | 5 kts | 108° |
| 2026-04-07 08:39 | 51.02805 | 71.46830 | 1170 ft | 7 kts | 127° |
| 2026-04-07 08:39 | 51.02770 | 71.46898 | 1170 ft | 9 kts | 129° |
| 2026-04-07 08:39 | 51.02784 | 71.46978 | 1170 ft | 10 kts | 47° |
| 2026-04-07 08:39 | 51.02838 | 71.47066 | 1171 ft | 12 kts | 45° |
| 2026-04-07 08:40 | 51.02903 | 71.47169 | 1171 ft | 14 kts | 44° |
| 2026-04-07 08:40 | 51.02977 | 71.47284 | 1171 ft | 16 kts | 44° |
| 2026-04-07 08:40 | 51.03059 | 71.47414 | 1170 ft | 18 kts | 44° |
| 2026-04-07 08:40 | 51.03153 | 71.47560 | 1169 ft | 20 kts | 45° |
| 2026-04-07 08:41 | 51.03257 | 71.47721 | 1171 ft | 20 kts | 44° |
| 2026-04-07 08:41 | 51.03322 | 71.47822 | 1169 ft | 12 kts | 45° |
| 2026-04-07 08:41 | 51.03387 | 71.47925 | 1172 ft | 14 kts | 45° |
| 2026-04-07 08:41 | 51.03428 | 71.48060 | 1171 ft | 13 kts | 84° |
| 2026-04-07 08:42 | 51.03430 | 71.48217 | 1173 ft | 15 kts | 96° |
| 2026-04-07 08:42 | 51.03399 | 71.48318 | 1171 ft | 7 kts | 129° |
| 2026-04-07 08:42 | 51.03372 | 71.48344 | 1168 ft | 3 kts | 196° |
| 2026-04-07 08:42 | 51.03329 | 71.48289 | 1172 ft | 20 kts | 222° |
| 2026-04-07 08:43 | 51.03071 | 71.47891 | 1173 ft | 81 kts | 224° |
| 2026-04-07 08:43 | 51.02532 | 71.47050 | 1175 ft | 134 kts | 224° |
| 2026-04-07 08:43 | 51.01754 | 71.45842 | 1195 ft | 175 kts | 225° |
| 2026-04-07 08:43 | 51.00857 | 71.44435 | 1618 ft | 183 kts | 225° |
| 2026-04-07 08:44 | 50.99965 | 71.43013 | 2249 ft | 185 kts | 225° |
| 2026-04-07 08:44 | 50.99055 | 71.41550 | 2920 ft | 186 kts | 224° |
| 2026-04-07 08:44 | 50.98107 | 71.40060 | 3344 ft | 198 kts | 225° |
| 2026-04-07 08:44 | 50.97100 | 71.38467 | 3748 ft | 211 kts | 224° |
| 2026-04-07 08:45 | 50.96100 | 71.36642 | 4023 ft | 229 kts | 240° |
| 2026-04-07 08:45 | 50.95699 | 71.34101 | 4353 ft | 250 kts | 271° |
| 2026-04-07 08:45 | 50.96156 | 71.31356 | 4900 ft | 263 kts | 288° |
| 2026-04-07 08:45 | 50.96839 | 71.28642 | 5662 ft | 265 kts | 288° |
| 2026-04-07 08:46 | 50.97510 | 71.25914 | 6489 ft | 265 kts | 287° |
| 2026-04-07 08:46 | 50.97906 | 71.23107 | 7184 ft | 265 kts | 266° |
| 2026-04-07 08:46 | 50.97707 | 71.20182 | 7934 ft | 267 kts | 258° |
| 2026-04-07 08:46 | 50.97367 | 71.17255 | 8687 ft | 272 kts | 257° |
| 2026-04-07 08:47 | 50.97020 | 71.14268 | 9447 ft | 277 kts | 257° |
| 2026-04-07 08:47 | 50.96686 | 71.11220 | 10188 ft | 283 kts | 257° |
| 2026-04-07 08:47 | 50.96356 | 71.08064 | 10684 ft | 297 kts | 258° |
| 2026-04-07 08:47 | 50.96019 | 71.04735 | 11074 ft | 315 kts | 258° |
| 2026-04-07 08:48 | 50.95668 | 71.01199 | 11446 ft | 332 kts | 258° |
| 2026-04-07 08:48 | 50.95303 | 70.97483 | 11795 ft | 350 kts | 258° |
| 2026-04-07 08:48 | 50.94920 | 70.93571 | 12214 ft | 365 kts | 258° |
| 2026-04-07 08:48 | 50.94529 | 70.89561 | 12972 ft | 369 kts | 258° |
| 2026-04-07 08:49 | 50.94136 | 70.85525 | 13831 ft | 371 kts | 258° |
| 2026-04-07 08:49 | 50.93723 | 70.81462 | 14532 ft | 374 kts | 256° |
| 2026-04-07 08:49 | 50.93004 | 70.77509 | 15265 ft | 373 kts | 247° |
| 2026-04-07 08:49 | 50.91902 | 70.73838 | 16002 ft | 373 kts | 238° |
| 2026-04-07 08:50 | 50.90470 | 70.70394 | 16784 ft | 374 kts | 234° |
| 2026-04-07 08:50 | 50.88967 | 70.67004 | 17520 ft | 377 kts | 234° |
| 2026-04-07 08:50 | 50.87444 | 70.63595 | 18220 ft | 380 kts | 234° |
| 2026-04-07 08:50 | 50.85910 | 70.60160 | 18823 ft | 383 kts | 234° |
| 2026-04-07 08:51 | 50.84363 | 70.56692 | 19419 ft | 386 kts | 234° |
| 2026-04-07 08:51 | 50.82804 | 70.53201 | 20014 ft | 390 kts | 234° |
| 2026-04-07 08:51 | 50.81230 | 70.49680 | 20604 ft | 393 kts | 234° |
| 2026-04-07 08:51 | 50.79643 | 70.46132 | 21193 ft | 396 kts | 234° |
| 2026-04-07 08:52 | 50.78040 | 70.42555 | 21771 ft | 400 kts | 234° |
| 2026-04-07 08:52 | 50.76423 | 70.38950 | 22331 ft | 403 kts | 234° |
| 2026-04-07 08:52 | 50.74792 | 70.35320 | 22906 ft | 407 kts | 234° |
| 2026-04-07 08:52 | 50.73142 | 70.31656 | 23448 ft | 410 kts | 234° |
| 2026-04-07 08:53 | 50.71499 | 70.28011 | 23925 ft | 413 kts | 234° |
| 2026-04-07 08:53 | 50.69906 | 70.24213 | 24414 ft | 416 kts | 238° |
| 2026-04-07 08:53 | 50.68506 | 70.20192 | 24943 ft | 418 kts | 243° |
| 2026-04-07 08:53 | 50.67318 | 70.15999 | 25448 ft | 420 kts | 247° |
| 2026-04-07 08:54 | 50.66294 | 70.11665 | 25962 ft | 422 kts | 249° |
| 2026-04-07 08:54 | 50.65291 | 70.07297 | 26454 ft | 424 kts | 249° |
| 2026-04-07 08:54 | 50.64287 | 70.02911 | 26945 ft | 426 kts | 249° |
| 2026-04-07 08:54 | 50.63280 | 69.98519 | 27466 ft | 427 kts | 249° |
| 2026-04-07 08:55 | 50.62268 | 69.94118 | 27978 ft | 428 kts | 249° |
| 2026-04-07 08:55 | 50.61252 | 69.89702 | 28502 ft | 428 kts | 249° |
| 2026-04-07 08:55 | 50.60236 | 69.85300 | 29193 ft | 425 kts | 249° |
| 2026-04-07 08:55 | 50.59230 | 69.80948 | 29964 ft | 420 kts | 249° |
| 2026-04-07 08:56 | 50.58233 | 69.76646 | 30605 ft | 416 kts | 249° |
| 2026-04-07 08:56 | 50.57241 | 69.72374 | 31202 ft | 413 kts | 249° |
| 2026-04-07 08:56 | 50.56256 | 69.68139 | 31779 ft | 411 kts | 249° |
| 2026-04-07 08:56 | 50.55275 | 69.63932 | 32326 ft | 408 kts | 249° |
| 2026-04-07 08:57 | 50.54296 | 69.59740 | 32881 ft | 406 kts | 249° |
| 2026-04-07 08:57 | 50.53324 | 69.55581 | 33465 ft | 403 kts | 249° |
| 2026-04-07 08:57 | 50.52357 | 69.51462 | 33995 ft | 400 kts | 249° |
| 2026-04-07 08:57 | 50.51392 | 69.47350 | 34394 ft | 400 kts | 249° |
| 2026-04-07 08:58 | 50.50424 | 69.43239 | 34675 ft | 402 kts | 249° |
| 2026-04-07 08:58 | 50.49450 | 69.39108 | 34921 ft | 405 kts | 249° |
| 2026-04-07 08:58 | 50.48467 | 69.34945 | 35190 ft | 406 kts | 249° |
| 2026-04-07 08:58 | 50.47479 | 69.30776 | 35459 ft | 408 kts | 249° |
| 2026-04-07 08:59 | 50.46483 | 69.26578 | 35731 ft | 410 kts | 249° |
| 2026-04-07 08:59 | 50.45498 | 69.22436 | 35968 ft | 411 kts | 249° |
| 2026-04-07 08:59 | 50.44491 | 69.18214 | 36199 ft | 413 kts | 249° |
| 2026-04-07 08:59 | 50.43464 | 69.13914 | 36370 ft | 417 kts | 249° |
| 2026-04-07 09:00 | 50.42440 | 69.09640 | 36546 ft | 420 kts | 249° |
| 2026-04-07 09:00 | 50.41419 | 69.05385 | 36731 ft | 422 kts | 249° |
| 2026-04-07 09:00 | 50.40380 | 69.01066 | 36933 ft | 424 kts | 249° |
| 2026-04-07 09:00 | 50.39333 | 68.96718 | 37109 ft | 426 kts | 248° |
| 2026-04-07 09:01 | 50.38281 | 68.92358 | 37294 ft | 428 kts | 248° |
| 2026-04-07 09:01 | 50.37221 | 68.87974 | 37461 ft | 430 kts | 248° |
| 2026-04-07 09:01 | 50.36153 | 68.83566 | 37623 ft | 433 kts | 248° |
| 2026-04-07 09:01 | 50.35081 | 68.79147 | 37786 ft | 435 kts | 248° |
| 2026-04-07 09:02 | 50.34001 | 68.74702 | 37822 ft | 437 kts | 248° |
| 2026-04-07 09:02 | 50.31823 | 68.65773 | 37823 ft | 439 kts | 248° |
| 2026-04-07 09:03 | 50.29649 | 68.56896 | 37823 ft | 439 kts | 248° |
| 2026-04-07 09:03 | 50.27453 | 68.47964 | 37815 ft | 439 kts | 248° |
| 2026-04-07 09:04 | 50.25254 | 68.39056 | 37815 ft | 439 kts | 248° |
| 2026-04-07 09:04 | 50.23038 | 68.30122 | 37810 ft | 441 kts | 248° |
| 2026-04-07 09:05 | 50.21012 | 68.21056 | 37802 ft | 441 kts | 250° |
| 2026-04-07 09:05 | 50.19037 | 68.11979 | 37808 ft | 441 kts | 250° |
| 2026-04-07 09:06 | 50.17057 | 68.02909 | 37803 ft | 441 kts | 250° |
| 2026-04-07 09:06 | 50.15081 | 67.93890 | 37804 ft | 441 kts | 250° |
| 2026-04-07 09:07 | 50.13079 | 67.84797 | 37801 ft | 443 kts | 250° |
| 2026-04-07 09:07 | 50.11066 | 67.75681 | 37801 ft | 444 kts | 250° |
| 2026-04-07 09:08 | 50.09048 | 67.66586 | 37800 ft | 444 kts | 250° |
| 2026-04-07 09:08 | 50.07023 | 67.57493 | 37805 ft | 444 kts | 250° |
| 2026-04-07 09:09 | 50.05003 | 67.48474 | 37801 ft | 443 kts | 250° |
| 2026-04-07 09:09 | 50.02965 | 67.39406 | 37797 ft | 443 kts | 250° |
| 2026-04-07 09:10 | 50.00919 | 67.30333 | 37795 ft | 443 kts | 250° |
| 2026-04-07 09:10 | 49.98867 | 67.21284 | 37798 ft | 443 kts | 250° |
| 2026-04-07 09:11 | 49.96758 | 67.12265 | 37798 ft | 443 kts | 247° |
| 2026-04-07 09:11 | 49.94308 | 67.03470 | 37794 ft | 443 kts | 245° |
| 2026-04-07 09:12 | 49.91847 | 66.94765 | 37792 ft | 443 kts | 245° |
| 2026-04-07 09:12 | 49.89360 | 66.86003 | 37792 ft | 443 kts | 245° |
| 2026-04-07 09:13 | 49.86865 | 66.77250 | 37791 ft | 443 kts | 245° |
| 2026-04-07 09:13 | 49.84365 | 66.68506 | 37793 ft | 443 kts | 245° |
| 2026-04-07 09:14 | 49.81854 | 66.59761 | 37789 ft | 443 kts | 245° |
| 2026-04-07 09:14 | 49.79339 | 66.51036 | 37790 ft | 443 kts | 245° |
| 2026-04-07 09:15 | 49.76817 | 66.42314 | 37795 ft | 443 kts | 245° |
| 2026-04-07 09:15 | 49.74288 | 66.33606 | 37793 ft | 443 kts | 245° |
| 2026-04-07 09:16 | 49.71811 | 66.24866 | 37787 ft | 443 kts | 245° |
| 2026-04-07 09:16 | 49.69366 | 66.16171 | 37788 ft | 443 kts | 245° |
| 2026-04-07 09:17 | 49.66892 | 66.07417 | 37792 ft | 443 kts | 245° |
| 2026-04-07 09:17 | 49.64417 | 65.98701 | 37792 ft | 443 kts | 245° |
| 2026-04-07 09:18 | 49.62349 | 65.91444 | 37800 ft | 444 kts | 245° |
| 2026-04-07 09:18 | 49.58597 | 65.78340 | 37796 ft | 444 kts | 245° |
| 2026-04-07 09:19 | 49.56089 | 65.69622 | 37793 ft | 444 kts | 245° |
| 2026-04-07 09:19 | 49.53588 | 65.60958 | 37793 ft | 444 kts | 245° |
| 2026-04-07 09:20 | 49.51065 | 65.52248 | 37793 ft | 445 kts | 245° |
| 2026-04-07 09:20 | 49.48533 | 65.43539 | 37793 ft | 445 kts | 245° |
| 2026-04-07 09:21 | 49.45995 | 65.34844 | 37795 ft | 445 kts | 244° |
| 2026-04-07 09:21 | 49.43449 | 65.26148 | 37796 ft | 445 kts | 244° |
| 2026-04-07 09:22 | 49.40898 | 65.17467 | 37795 ft | 445 kts | 244° |
| 2026-04-07 09:22 | 49.38337 | 65.08781 | 37797 ft | 446 kts | 244° |
| 2026-04-07 09:23 | 49.35763 | 65.00088 | 37794 ft | 446 kts | 244° |
| 2026-04-07 09:23 | 49.33158 | 64.91518 | 37801 ft | 446 kts | 243° |
| 2026-04-07 09:24 | 49.30416 | 64.82970 | 37796 ft | 446 kts | 243° |
| 2026-04-07 09:24 | 49.27666 | 64.74425 | 37802 ft | 447 kts | 243° |
| 2026-04-07 09:25 | 49.24915 | 64.65878 | 37795 ft | 447 kts | 243° |
| 2026-04-07 09:25 | 49.22154 | 64.57312 | 37798 ft | 447 kts | 243° |
| 2026-04-07 09:26 | 49.19392 | 64.48767 | 37802 ft | 447 kts | 243° |
| 2026-04-07 09:26 | 49.16641 | 64.40285 | 37817 ft | 447 kts | 242° |
| 2026-04-07 09:27 | 49.13859 | 64.31742 | 37808 ft | 448 kts | 243° |
| 2026-04-07 09:27 | 49.11074 | 64.23212 | 37809 ft | 448 kts | 242° |
| 2026-04-07 09:28 | 49.08303 | 64.14752 | 37799 ft | 448 kts | 242° |
| 2026-04-07 09:28 | 49.05507 | 64.06236 | 37813 ft | 448 kts | 242° |
| 2026-04-07 09:29 | 49.02696 | 63.97722 | 37813 ft | 449 kts | 242° |
| 2026-04-07 09:29 | 48.99877 | 63.89205 | 37821 ft | 450 kts | 242° |
| 2026-04-07 09:30 | 48.97048 | 63.80684 | 37822 ft | 450 kts | 242° |
| 2026-04-07 09:30 | 48.94236 | 63.72240 | 37823 ft | 450 kts | 242° |
| 2026-04-07 09:31 | 48.91395 | 63.63741 | 37824 ft | 450 kts | 242° |
| 2026-04-07 09:31 | 48.88556 | 63.55250 | 37821 ft | 450 kts | 243° |
| 2026-04-07 09:32 | 48.85968 | 63.46548 | 37821 ft | 450 kts | 245° |
| 2026-04-07 09:32 | 48.83421 | 63.37851 | 37821 ft | 450 kts | 245° |
| 2026-04-07 09:33 | 48.80864 | 63.29146 | 37827 ft | 450 kts | 245° |
| 2026-04-07 09:33 | 48.78300 | 63.20438 | 37839 ft | 452 kts | 244° |
| 2026-04-07 09:34 | 48.75727 | 63.11734 | 37833 ft | 452 kts | 244° |
| 2026-04-07 09:34 | 48.73146 | 63.03035 | 37828 ft | 452 kts | 244° |
| 2026-04-07 09:35 | 48.70558 | 62.94339 | 37836 ft | 452 kts | 244° |
| 2026-04-07 09:35 | 48.67976 | 62.85693 | 37845 ft | 453 kts | 244° |
| 2026-04-07 09:36 | 48.65369 | 62.76998 | 37843 ft | 453 kts | 244° |
| 2026-04-07 09:36 | 48.62750 | 62.68295 | 37847 ft | 454 kts | 244° |
| 2026-04-07 09:37 | 48.59974 | 62.59726 | 37838 ft | 453 kts | 242° |
| 2026-04-07 09:37 | 48.57126 | 62.51200 | 37840 ft | 453 kts | 242° |
| 2026-04-07 09:38 | 48.54303 | 62.42740 | 37847 ft | 453 kts | 242° |
| 2026-04-07 09:38 | 48.51466 | 62.34238 | 37850 ft | 453 kts | 242° |
| 2026-04-07 09:39 | 48.48625 | 62.25739 | 37849 ft | 453 kts | 242° |
| 2026-04-07 09:39 | 48.45777 | 62.17244 | 37855 ft | 453 kts | 242° |
| 2026-04-07 09:40 | 48.42916 | 62.08741 | 37852 ft | 455 kts | 242° |
| 2026-04-07 09:40 | 48.40049 | 62.00243 | 37857 ft | 455 kts | 242° |
| 2026-04-07 09:41 | 48.37173 | 61.91750 | 37850 ft | 455 kts | 242° |
| 2026-04-07 09:41 | 48.34307 | 61.83312 | 37856 ft | 455 kts | 242° |
| 2026-04-07 09:42 | 48.31414 | 61.74827 | 37858 ft | 456 kts | 242° |
| 2026-04-07 09:42 | 48.28512 | 61.66339 | 37857 ft | 456 kts | 242° |
| 2026-04-07 09:43 | 48.25597 | 61.57840 | 37855 ft | 456 kts | 242° |
| 2026-04-07 09:43 | 48.22703 | 61.49431 | 37854 ft | 456 kts | 242° |
| 2026-04-07 09:44 | 48.19772 | 61.40946 | 37859 ft | 457 kts | 242° |
| 2026-04-07 09:44 | 48.16835 | 61.32466 | 37864 ft | 457 kts | 241° |
| 2026-04-07 09:45 | 48.13894 | 61.24003 | 37863 ft | 457 kts | 241° |
| 2026-04-07 09:45 | 48.10966 | 61.15606 | 37866 ft | 457 kts | 241° |
| 2026-04-07 09:46 | 48.07992 | 61.07104 | 37869 ft | 458 kts | 241° |
| 2026-04-07 09:46 | 48.05045 | 60.98708 | 37869 ft | 458 kts | 241° |
| 2026-04-07 09:47 | 48.02071 | 60.90261 | 37872 ft | 458 kts | 241° |
| 2026-04-07 09:47 | 47.99093 | 60.81831 | 37873 ft | 458 kts | 241° |
| 2026-04-07 09:48 | 47.96108 | 60.73408 | 37875 ft | 459 kts | 241° |
| 2026-04-07 09:48 | 47.93111 | 60.64974 | 37858 ft | 460 kts | 241° |
| 2026-04-07 09:49 | 47.90102 | 60.56537 | 37870 ft | 460 kts | 241° |
| 2026-04-07 09:49 | 47.87083 | 60.48099 | 37879 ft | 461 kts | 241° |
| 2026-04-07 09:50 | 47.84078 | 60.39730 | 37876 ft | 461 kts | 241° |
| 2026-04-07 09:50 | 47.81048 | 60.31311 | 37882 ft | 461 kts | 240° |
| 2026-04-07 09:51 | 47.78005 | 60.22881 | 37875 ft | 461 kts | 240° |
| 2026-04-07 09:51 | 47.74958 | 60.14478 | 37875 ft | 461 kts | 240° |
| 2026-04-07 09:52 | 47.71902 | 60.06082 | 37885 ft | 461 kts | 240° |
| 2026-04-07 09:52 | 47.68859 | 59.97752 | 37879 ft | 461 kts | 240° |
| 2026-04-07 09:53 | 47.65791 | 59.89370 | 37879 ft | 461 kts | 240° |
| 2026-04-07 09:53 | 47.62719 | 59.81006 | 37881 ft | 461 kts | 240° |
| 2026-04-07 09:54 | 47.59642 | 59.72653 | 37884 ft | 461 kts | 240° |
| 2026-04-07 09:54 | 47.56553 | 59.64294 | 37884 ft | 462 kts | 240° |
| 2026-04-07 09:55 | 47.53461 | 59.55954 | 37887 ft | 462 kts | 240° |
| 2026-04-07 09:55 | 47.50360 | 59.47613 | 37886 ft | 462 kts | 240° |
| 2026-04-07 09:56 | 47.47251 | 59.39278 | 37888 ft | 462 kts | 240° |
| 2026-04-07 09:56 | 47.44153 | 59.30998 | 37887 ft | 462 kts | 240° |
| 2026-04-07 09:57 | 47.41028 | 59.22675 | 37884 ft | 462 kts | 240° |
| 2026-04-07 09:57 | 47.37900 | 59.14366 | 37883 ft | 462 kts | 240° |
| 2026-04-07 09:58 | 47.34762 | 59.06059 | 37886 ft | 462 kts | 240° |
| 2026-04-07 09:58 | 47.31625 | 58.97778 | 37886 ft | 462 kts | 240° |
| 2026-04-07 09:59 | 47.28480 | 58.89503 | 37887 ft | 462 kts | 240° |
| 2026-04-07 09:59 | 47.25344 | 58.81277 | 37885 ft | 462 kts | 240° |
| 2026-04-07 10:00 | 47.22188 | 58.73022 | 37887 ft | 462 kts | 239° |
| 2026-04-07 10:00 | 47.19019 | 58.64762 | 37889 ft | 463 kts | 239° |
| 2026-04-07 10:01 | 47.15839 | 58.56495 | 37888 ft | 463 kts | 239° |
| 2026-04-07 10:01 | 47.12657 | 58.48250 | 37886 ft | 463 kts | 239° |
| 2026-04-07 10:02 | 47.09468 | 58.40012 | 37892 ft | 463 kts | 239° |
| 2026-04-07 10:02 | 47.06273 | 58.31787 | 37890 ft | 463 kts | 239° |
| 2026-04-07 10:03 | 47.03097 | 58.23629 | 37888 ft | 463 kts | 239° |
| 2026-04-07 10:03 | 46.99895 | 58.15431 | 37890 ft | 463 kts | 239° |
| 2026-04-07 10:04 | 46.96687 | 58.07245 | 37896 ft | 463 kts | 239° |
| 2026-04-07 10:04 | 46.93474 | 57.99070 | 37893 ft | 463 kts | 239° |
| 2026-04-07 10:05 | 46.90257 | 57.90906 | 37892 ft | 463 kts | 239° |
| 2026-04-07 10:05 | 46.87031 | 57.82747 | 37897 ft | 463 kts | 239° |
| 2026-04-07 10:06 | 46.83800 | 57.74598 | 37900 ft | 463 kts | 239° |
| 2026-04-07 10:06 | 46.80566 | 57.66467 | 37903 ft | 463 kts | 239° |
| 2026-04-07 10:07 | 46.77342 | 57.58388 | 37903 ft | 463 kts | 239° |
| 2026-04-07 10:07 | 46.74097 | 57.50277 | 37886 ft | 463 kts | 239° |
| 2026-04-07 10:08 | 46.71392 | 57.43533 | 37897 ft | 463 kts | 239° |
| 2026-04-07 10:08 | 46.68131 | 57.35426 | 37915 ft | 463 kts | 239° |
| 2026-04-07 10:09 | 46.64862 | 57.27322 | 37902 ft | 463 kts | 238° |
| 2026-04-07 10:09 | 46.61593 | 57.19241 | 37921 ft | 463 kts | 238° |
| 2026-04-07 10:10 | 46.58313 | 57.11157 | 37922 ft | 463 kts | 238° |
| 2026-04-07 10:10 | 46.55025 | 57.03077 | 37905 ft | 464 kts | 238° |
| 2026-04-07 10:11 | 46.51657 | 56.95086 | 37922 ft | 464 kts | 235° |
| 2026-04-07 10:11 | 46.47788 | 56.87590 | 37921 ft | 463 kts | 229° |
| 2026-04-07 10:12 | 46.43401 | 56.80743 | 37915 ft | 463 kts | 223° |
| 2026-04-07 10:12 | 46.38575 | 56.74548 | 37914 ft | 463 kts | 220° |
| 2026-04-07 10:13 | 46.33709 | 56.68517 | 37931 ft | 463 kts | 220° |
| 2026-04-07 10:13 | 46.28809 | 56.62454 | 37921 ft | 463 kts | 220° |
| 2026-04-07 10:14 | 46.23905 | 56.56401 | 37923 ft | 463 kts | 220° |
| 2026-04-07 10:14 | 46.18992 | 56.50356 | 37914 ft | 464 kts | 220° |
| 2026-04-07 10:15 | 46.14071 | 56.44316 | 37932 ft | 464 kts | 220° |
| 2026-04-07 10:15 | 46.09148 | 56.38286 | 37932 ft | 464 kts | 220° |
| 2026-04-07 10:16 | 46.04222 | 56.32265 | 37925 ft | 464 kts | 220° |
| 2026-04-07 10:16 | 45.99279 | 56.26242 | 37920 ft | 465 kts | 219° |
| 2026-04-07 10:17 | 45.94365 | 56.20269 | 37936 ft | 465 kts | 219° |
| 2026-04-07 10:17 | 45.89421 | 56.14273 | 37939 ft | 465 kts | 219° |
| 2026-04-07 10:18 | 45.84475 | 56.08289 | 37942 ft | 465 kts | 219° |
| 2026-04-07 10:18 | 45.79522 | 56.02311 | 37929 ft | 465 kts | 219° |
| 2026-04-07 10:19 | 45.72093 | 55.93372 | 37936 ft | 465 kts | 219° |
| 2026-04-07 10:20 | 45.67137 | 55.87425 | 37943 ft | 465 kts | 219° |
| 2026-04-07 10:20 | 45.62167 | 55.81478 | 37945 ft | 465 kts | 219° |
| 2026-04-07 10:21 | 45.57227 | 55.75580 | 37945 ft | 465 kts | 219° |
| 2026-04-07 10:21 | 45.52257 | 55.69660 | 37949 ft | 465 kts | 219° |
| 2026-04-07 10:22 | 45.47274 | 55.63739 | 37949 ft | 466 kts | 219° |
| 2026-04-07 10:22 | 45.42285 | 55.57824 | 37937 ft | 466 kts | 219° |
| 2026-04-07 10:23 | 45.37297 | 55.51923 | 37944 ft | 466 kts | 219° |
| 2026-04-07 10:23 | 45.32305 | 55.46032 | 37951 ft | 466 kts | 219° |
| 2026-04-07 10:24 | 45.27307 | 55.40149 | 37949 ft | 466 kts | 219° |
| 2026-04-07 10:24 | 45.22339 | 55.34314 | 37949 ft | 466 kts | 219° |
| 2026-04-07 10:25 | 45.17333 | 55.28447 | 37954 ft | 466 kts | 219° |
| 2026-04-07 10:25 | 45.12325 | 55.22593 | 37960 ft | 466 kts | 219° |
| 2026-04-07 10:26 | 45.07374 | 55.16662 | 37960 ft | 466 kts | 222° |
| 2026-04-07 10:26 | 45.02590 | 55.10442 | 37963 ft | 466 kts | 221° |
| 2026-04-07 10:27 | 44.97807 | 55.04244 | 37958 ft | 466 kts | 221° |
| 2026-04-07 10:27 | 44.93027 | 54.98060 | 37962 ft | 466 kts | 221° |
| 2026-04-07 10:28 | 44.88271 | 54.91920 | 37963 ft | 465 kts | 221° |
| 2026-04-07 10:28 | 44.83486 | 54.85757 | 37966 ft | 466 kts | 221° |
| 2026-04-07 10:29 | 44.78696 | 54.79601 | 37968 ft | 465 kts | 221° |
| 2026-04-07 10:29 | 44.73915 | 54.73469 | 37971 ft | 465 kts | 221° |
| 2026-04-07 10:30 | 44.69165 | 54.67254 | 37965 ft | 465 kts | 224° |
| 2026-04-07 10:30 | 44.64832 | 54.60496 | 37947 ft | 465 kts | 230° |
| 2026-04-07 10:31 | 44.61007 | 54.53194 | 37975 ft | 467 kts | 234° |
| 2026-04-07 10:31 | 44.57286 | 54.45717 | 37971 ft | 467 kts | 234° |
| 2026-04-07 10:32 | 44.53549 | 54.38234 | 37973 ft | 467 kts | 234° |
| 2026-04-07 10:32 | 44.49817 | 54.30779 | 37954 ft | 466 kts | 234° |
| 2026-04-07 10:33 | 44.46076 | 54.23328 | 37965 ft | 467 kts | 234° |
| 2026-04-07 10:33 | 44.42330 | 54.15884 | 37947 ft | 467 kts | 234° |
| 2026-04-07 10:34 | 44.38580 | 54.08452 | 37960 ft | 467 kts | 234° |
| 2026-04-07 10:34 | 44.34852 | 54.01083 | 37955 ft | 466 kts | 234° |
| 2026-04-07 10:35 | 44.31096 | 53.93678 | 37958 ft | 467 kts | 234° |
| 2026-04-07 10:35 | 44.27341 | 53.86291 | 37955 ft | 466 kts | 234° |
| 2026-04-07 10:36 | 44.23576 | 53.78905 | 37958 ft | 466 kts | 234° |
| 2026-04-07 10:36 | 44.19809 | 53.71533 | 37957 ft | 466 kts | 234° |
| 2026-04-07 10:37 | 44.16036 | 53.64169 | 37959 ft | 467 kts | 234° |
| 2026-04-07 10:37 | 44.12262 | 53.56821 | 37957 ft | 466 kts | 234° |
| 2026-04-07 10:38 | 44.08479 | 53.49477 | 37965 ft | 466 kts | 233° |
| 2026-04-07 10:38 | 44.04695 | 53.42142 | 37951 ft | 466 kts | 233° |
| 2026-04-07 10:39 | 44.00932 | 53.34870 | 37967 ft | 466 kts | 233° |
| 2026-04-07 10:39 | 43.97139 | 53.27558 | 37947 ft | 466 kts | 233° |
| 2026-04-07 10:40 | 43.93342 | 53.20254 | 37969 ft | 466 kts | 233° |
| 2026-04-07 10:40 | 43.89536 | 53.12954 | 37971 ft | 466 kts | 233° |
| 2026-04-07 10:41 | 43.85721 | 53.05663 | 37968 ft | 466 kts | 233° |
| 2026-04-07 10:41 | 43.81904 | 52.98388 | 37955 ft | 466 kts | 233° |
| 2026-04-07 10:42 | 43.78086 | 52.91127 | 37965 ft | 465 kts | 233° |
| 2026-04-07 10:42 | 43.74265 | 52.83876 | 37963 ft | 466 kts | 233° |
| 2026-04-07 10:43 | 43.70468 | 52.76685 | 37945 ft | 466 kts | 233° |
| 2026-04-07 10:43 | 43.66644 | 52.69465 | 37962 ft | 464 kts | 233° |
| 2026-04-07 10:44 | 43.62811 | 52.62270 | 37958 ft | 464 kts | 233° |
| 2026-04-07 10:44 | 43.58974 | 52.55099 | 37960 ft | 464 kts | 233° |
| 2026-04-07 10:45 | 43.55130 | 52.47927 | 37961 ft | 464 kts | 233° |
| 2026-04-07 10:45 | 43.51291 | 52.40778 | 37958 ft | 463 kts | 233° |
| 2026-04-07 10:46 | 43.47452 | 52.33645 | 37961 ft | 463 kts | 233° |
| 2026-04-07 10:46 | 43.43604 | 52.26513 | 37961 ft | 463 kts | 233° |
| 2026-04-07 10:47 | 43.39760 | 52.19408 | 37971 ft | 462 kts | 233° |
| 2026-04-07 10:47 | 43.35936 | 52.12354 | 37974 ft | 462 kts | 233° |
| 2026-04-07 10:48 | 43.32084 | 52.05266 | 37971 ft | 462 kts | 232° |
| 2026-04-07 10:48 | 43.28233 | 51.98197 | 37958 ft | 462 kts | 233° |
| 2026-04-07 10:49 | 43.24370 | 51.91124 | 37977 ft | 461 kts | 233° |
| 2026-04-07 10:49 | 43.20512 | 51.84074 | 37980 ft | 461 kts | 232° |
| 2026-04-07 10:50 | 43.16670 | 51.77071 | 37983 ft | 461 kts | 232° |
| 2026-04-07 10:50 | 43.12804 | 51.70043 | 37983 ft | 460 kts | 232° |
| 2026-04-07 10:51 | 43.08947 | 51.63045 | 37983 ft | 460 kts | 232° |
| 2026-04-07 10:51 | 43.05089 | 51.56064 | 37982 ft | 460 kts | 232° |
| 2026-04-07 10:52 | 43.01249 | 51.49133 | 37982 ft | 458 kts | 232° |
| 2026-04-07 10:52 | 42.97407 | 51.42213 | 37984 ft | 456 kts | 232° |
| 2026-04-07 10:53 | 42.93565 | 51.35306 | 37977 ft | 456 kts | 232° |
| 2026-04-07 10:53 | 42.89719 | 51.28410 | 37978 ft | 456 kts | 232° |
| 2026-04-07 10:54 | 42.85874 | 51.21533 | 37969 ft | 456 kts | 232° |
| 2026-04-07 10:54 | 42.82019 | 51.14656 | 37981 ft | 455 kts | 232° |
| 2026-04-07 10:55 | 42.78194 | 51.07843 | 37974 ft | 455 kts | 232° |
| 2026-04-07 10:55 | 42.74334 | 51.00986 | 37973 ft | 455 kts | 232° |
| 2026-04-07 10:56 | 42.70478 | 50.94152 | 37972 ft | 455 kts | 232° |
| 2026-04-07 10:56 | 42.66616 | 50.87322 | 37973 ft | 455 kts | 232° |
| 2026-04-07 10:57 | 42.62749 | 50.80498 | 37987 ft | 455 kts | 232° |
| 2026-04-07 10:57 | 42.58878 | 50.73686 | 37967 ft | 455 kts | 232° |
| 2026-04-07 10:58 | 42.55007 | 50.66884 | 37965 ft | 455 kts | 232° |
| 2026-04-07 10:58 | 42.51786 | 50.61237 | 37974 ft | 455 kts | 232° |
| 2026-04-07 10:59 | 42.47282 | 50.53358 | 37965 ft | 454 kts | 232° |
| 2026-04-07 10:59 | 42.44032 | 50.47678 | 37963 ft | 454 kts | 233° |
| 2026-04-07 11:00 | 42.40357 | 50.40782 | 37965 ft | 454 kts | 234° |
| 2026-04-07 11:00 | 42.36676 | 50.33831 | 37980 ft | 454 kts | 234° |
| 2026-04-07 11:01 | 42.32991 | 50.26884 | 37963 ft | 454 kts | 234° |
| 2026-04-07 11:01 | 42.29305 | 50.19947 | 37961 ft | 454 kts | 234° |
| 2026-04-07 11:02 | 42.25612 | 50.13010 | 37958 ft | 454 kts | 234° |
| 2026-04-07 11:02 | 42.21918 | 50.06088 | 37961 ft | 454 kts | 234° |
| 2026-04-07 11:03 | 42.18227 | 49.99187 | 37953 ft | 454 kts | 234° |
| 2026-04-07 11:03 | 42.14554 | 49.92334 | 37954 ft | 453 kts | 234° |
| 2026-04-07 11:04 | 42.10853 | 49.85445 | 37953 ft | 454 kts | 234° |
| 2026-04-07 11:04 | 42.07143 | 49.78556 | 37946 ft | 453 kts | 234° |
| 2026-04-07 11:05 | 42.03436 | 49.71687 | 37949 ft | 453 kts | 234° |
| 2026-04-07 11:05 | 41.99718 | 49.64811 | 37941 ft | 453 kts | 234° |
| 2026-04-07 11:06 | 41.95997 | 49.57950 | 37940 ft | 453 kts | 234° |
| 2026-04-07 11:06 | 41.92276 | 49.51102 | 37932 ft | 452 kts | 234° |
| 2026-04-07 11:07 | 41.88585 | 49.44318 | 37933 ft | 452 kts | 234° |
| 2026-04-07 11:07 | 41.84864 | 49.37497 | 37933 ft | 452 kts | 234° |
| 2026-04-07 11:08 | 41.81146 | 49.30666 | 37925 ft | 452 kts | 236° |
| 2026-04-07 11:08 | 41.77640 | 49.23660 | 37909 ft | 452 kts | 237° |
| 2026-04-07 11:09 | 41.74143 | 49.16646 | 37906 ft | 452 kts | 237° |
| 2026-04-07 11:09 | 41.70644 | 49.09643 | 37910 ft | 451 kts | 237° |
| 2026-04-07 11:10 | 41.67149 | 49.02655 | 37909 ft | 451 kts | 237° |
| 2026-04-07 11:10 | 41.63652 | 48.95678 | 37914 ft | 451 kts | 237° |
| 2026-04-07 11:11 | 41.60145 | 48.88697 | 37911 ft | 451 kts | 237° |
| 2026-04-07 11:11 | 41.56643 | 48.81739 | 37910 ft | 451 kts | 237° |
| 2026-04-07 11:12 | 41.53129 | 48.74788 | 37911 ft | 451 kts | 236° |
| 2026-04-07 11:12 | 41.49646 | 48.68461 | 37911 ft | 451 kts | 234° |
| 2026-04-07 11:13 | 41.45925 | 48.61786 | 37908 ft | 451 kts | 234° |
| 2026-04-07 11:13 | 41.42173 | 48.55076 | 37904 ft | 451 kts | 234° |
| 2026-04-07 11:14 | 41.38479 | 48.48317 | 37902 ft | 450 kts | 235° |
| 2026-04-07 11:14 | 41.34802 | 48.41554 | 37902 ft | 450 kts | 235° |
| 2026-04-07 11:15 | 41.31117 | 48.34796 | 37903 ft | 450 kts | 234° |
| 2026-04-07 11:15 | 41.27425 | 48.28046 | 37913 ft | 450 kts | 234° |
| 2026-04-07 11:16 | 41.23727 | 48.21302 | 37916 ft | 450 kts | 235° |
| 2026-04-07 11:16 | 41.20026 | 48.14570 | 37918 ft | 451 kts | 235° |
| 2026-04-07 11:17 | 41.16412 | 48.07822 | 37927 ft | 450 kts | 239° |
| 2026-04-07 11:17 | 41.13833 | 48.00265 | 37939 ft | 450 kts | 253° |
| 2026-04-07 11:18 | 41.12719 | 47.92104 | 37947 ft | 449 kts | 266° |
| 2026-04-07 11:18 | 41.13131 | 47.83827 | 37952 ft | 451 kts | 278° |
| 2026-04-07 11:19 | 41.14374 | 47.75641 | 37947 ft | 452 kts | 279° |
| 2026-04-07 11:19 | 41.15657 | 47.67463 | 37944 ft | 453 kts | 279° |
| 2026-04-07 11:20 | 41.16935 | 47.59265 | 37961 ft | 453 kts | 279° |
| 2026-04-07 11:20 | 41.18203 | 47.51057 | 37962 ft | 453 kts | 279° |
| 2026-04-07 11:21 | 41.19458 | 47.42899 | 37965 ft | 453 kts | 279° |
| 2026-04-07 11:21 | 41.20715 | 47.34687 | 37999 ft | 452 kts | 279° |
| 2026-04-07 11:22 | 41.21961 | 47.26502 | 37988 ft | 451 kts | 279° |
| 2026-04-07 11:22 | 41.23199 | 47.18310 | 37998 ft | 452 kts | 279° |
| 2026-04-07 11:23 | 41.24435 | 47.10109 | 38014 ft | 452 kts | 279° |
| 2026-04-07 11:23 | 41.25665 | 47.01905 | 38018 ft | 452 kts | 279° |
| 2026-04-07 11:24 | 41.26889 | 46.93698 | 38026 ft | 452 kts | 279° |
| 2026-04-07 11:24 | 41.28102 | 46.85533 | 38021 ft | 453 kts | 279° |
| 2026-04-07 11:25 | 41.29918 | 46.73185 | 38030 ft | 452 kts | 279° |
| 2026-04-07 11:25 | 41.31074 | 46.64954 | 38030 ft | 452 kts | 278° |
| 2026-04-07 11:26 | 41.32221 | 46.56711 | 38016 ft | 453 kts | 278° |
| 2026-04-07 11:26 | 41.33368 | 46.48454 | 38009 ft | 452 kts | 278° |
| 2026-04-07 11:27 | 41.34512 | 46.40193 | 38013 ft | 452 kts | 278° |
| 2026-04-07 11:27 | 41.35649 | 46.31936 | 37998 ft | 452 kts | 278° |
| 2026-04-07 11:28 | 41.36779 | 46.23686 | 37999 ft | 452 kts | 278° |
| 2026-04-07 11:28 | 41.37897 | 46.15479 | 38003 ft | 453 kts | 278° |
| 2026-04-07 11:29 | 41.39019 | 46.07198 | 37992 ft | 452 kts | 278° |
| 2026-04-07 11:29 | 41.40132 | 45.98937 | 37992 ft | 452 kts | 278° |
| 2026-04-07 11:30 | 41.41240 | 45.90667 | 37989 ft | 452 kts | 278° |
| 2026-04-07 11:30 | 41.42334 | 45.82453 | 37983 ft | 452 kts | 278° |
| 2026-04-07 11:31 | 41.43431 | 45.74175 | 37979 ft | 452 kts | 278° |
| 2026-04-07 11:31 | 41.44522 | 45.65898 | 37972 ft | 452 kts | 278° |
| 2026-04-07 11:32 | 41.45606 | 45.57625 | 37960 ft | 452 kts | 278° |
| 2026-04-07 11:32 | 41.46685 | 45.49348 | 37959 ft | 452 kts | 278° |
| 2026-04-07 11:33 | 41.47703 | 45.41061 | 37957 ft | 451 kts | 275° |
| 2026-04-07 11:33 | 41.48186 | 45.32777 | 37951 ft | 450 kts | 270° |
| 2026-04-07 11:34 | 41.48141 | 45.24409 | 37945 ft | 450 kts | 268° |
| 2026-04-07 11:34 | 41.48022 | 45.16002 | 37950 ft | 450 kts | 268° |
| 2026-04-07 11:35 | 41.47897 | 45.07705 | 37951 ft | 450 kts | 268° |
| 2026-04-07 11:35 | 41.47766 | 44.99359 | 37951 ft | 450 kts | 268° |
| 2026-04-07 11:36 | 41.47628 | 44.91000 | 37938 ft | 450 kts | 268° |
| 2026-04-07 11:36 | 41.47486 | 44.82643 | 37939 ft | 450 kts | 268° |
| 2026-04-07 11:37 | 41.47337 | 44.74271 | 37939 ft | 450 kts | 268° |
| 2026-04-07 11:37 | 41.47187 | 44.66167 | 37939 ft | 450 kts | 267° |
| 2026-04-07 11:38 | 41.47027 | 44.57821 | 37943 ft | 450 kts | 267° |
| 2026-04-07 11:38 | 41.46860 | 44.49475 | 37942 ft | 450 kts | 267° |
| 2026-04-07 11:39 | 41.46689 | 44.41180 | 37941 ft | 450 kts | 267° |
| 2026-04-07 11:39 | 41.46510 | 44.32825 | 37950 ft | 450 kts | 267° |
| 2026-04-07 11:40 | 41.46326 | 44.24470 | 37938 ft | 450 kts | 267° |
| 2026-04-07 11:40 | 41.46135 | 44.16114 | 37945 ft | 450 kts | 267° |
| 2026-04-07 11:41 | 41.45938 | 44.07767 | 37944 ft | 449 kts | 267° |
| 2026-04-07 11:41 | 41.45736 | 43.99458 | 37951 ft | 448 kts | 267° |
| 2026-04-07 11:42 | 41.45529 | 43.91169 | 37947 ft | 448 kts | 267° |
| 2026-04-07 11:42 | 41.45315 | 43.82849 | 37951 ft | 448 kts | 267° |
| 2026-04-07 11:43 | 41.45095 | 43.74533 | 37932 ft | 448 kts | 267° |
| 2026-04-07 11:43 | 41.44870 | 43.66212 | 37939 ft | 448 kts | 267° |
| 2026-04-07 11:44 | 41.44637 | 43.57875 | 37934 ft | 448 kts | 267° |
| 2026-04-07 11:44 | 41.44400 | 43.49563 | 37927 ft | 449 kts | 267° |
| 2026-04-07 11:45 | 41.44156 | 43.41220 | 37921 ft | 449 kts | 267° |
| 2026-04-07 11:45 | 41.43907 | 43.32912 | 38052 ft | 453 kts | 267° |
| 2026-04-07 11:46 | 41.43779 | 43.28711 | 38412 ft | 452 kts | 267° |
| 2026-04-07 11:46 | 41.43651 | 43.24526 | 38788 ft | 449 kts | 267° |
| 2026-04-07 11:46 | 41.43521 | 43.20371 | 39073 ft | 447 kts | 266° |
| 2026-04-07 11:46 | 41.43391 | 43.16220 | 39299 ft | 447 kts | 267° |
| 2026-04-07 11:47 | 41.43258 | 43.12062 | 39522 ft | 447 kts | 266° |
| 2026-04-07 11:47 | 41.43124 | 43.07915 | 39721 ft | 447 kts | 266° |
| 2026-04-07 11:47 | 41.43034 | 43.05170 | 39853 ft | 447 kts | 266° |
| 2026-04-07 11:47 | 41.42881 | 43.01027 | 39907 ft | 447 kts | 265° |
| 2026-04-07 11:48 | 41.42157 | 42.92797 | 39921 ft | 447 kts | 261° |
| 2026-04-07 11:48 | 41.41159 | 42.84616 | 39926 ft | 446 kts | 260° |
| 2026-04-07 11:49 | 41.40153 | 42.76432 | 39938 ft | 446 kts | 260° |
| 2026-04-07 11:49 | 41.39141 | 42.68250 | 39940 ft | 446 kts | 260° |
| 2026-04-07 11:50 | 41.38125 | 42.60090 | 39940 ft | 446 kts | 260° |
| 2026-04-07 11:50 | 41.37112 | 42.51987 | 39940 ft | 446 kts | 260° |
| 2026-04-07 11:51 | 41.36084 | 42.43828 | 39958 ft | 446 kts | 260° |
| 2026-04-07 11:51 | 41.35052 | 42.35680 | 39951 ft | 446 kts | 260° |
| 2026-04-07 11:52 | 41.34014 | 42.27537 | 39946 ft | 445 kts | 260° |
| 2026-04-07 11:52 | 41.32973 | 42.19409 | 39947 ft | 445 kts | 260° |
| 2026-04-07 11:53 | 41.31928 | 42.11296 | 39947 ft | 444 kts | 260° |
| 2026-04-07 11:53 | 41.30876 | 42.03177 | 39943 ft | 445 kts | 260° |
| 2026-04-07 11:54 | 41.29818 | 41.95062 | 39959 ft | 445 kts | 260° |
| 2026-04-07 11:54 | 41.28754 | 41.86954 | 39952 ft | 444 kts | 260° |
| 2026-04-07 11:55 | 41.27687 | 41.78850 | 39956 ft | 444 kts | 260° |
| 2026-04-07 11:55 | 41.26613 | 41.70753 | 39964 ft | 443 kts | 260° |
| 2026-04-07 11:56 | 41.25534 | 41.62664 | 39970 ft | 444 kts | 260° |
| 2026-04-07 11:56 | 41.24449 | 41.54566 | 39962 ft | 444 kts | 260° |
| 2026-04-07 11:57 | 41.23366 | 41.46538 | 39962 ft | 443 kts | 260° |
| 2026-04-07 11:57 | 41.22271 | 41.38461 | 39967 ft | 444 kts | 260° |
| 2026-04-07 11:58 | 41.21169 | 41.30369 | 39968 ft | 444 kts | 260° |
| 2026-04-07 11:58 | 41.20061 | 41.22283 | 39976 ft | 444 kts | 259° |
| 2026-04-07 11:59 | 41.18949 | 41.14216 | 39964 ft | 443 kts | 259° |
| 2026-04-07 11:59 | 41.17831 | 41.06147 | 39964 ft | 443 kts | 259° |
| 2026-04-07 12:00 | 41.16708 | 40.98085 | 39957 ft | 443 kts | 259° |
| 2026-04-07 12:00 | 41.15589 | 40.90091 | 39958 ft | 443 kts | 259° |
| 2026-04-07 12:01 | 41.14456 | 40.82044 | 39962 ft | 443 kts | 259° |
| 2026-04-07 12:01 | 41.13317 | 40.73993 | 39956 ft | 443 kts | 259° |
| 2026-04-07 12:02 | 41.12174 | 40.65957 | 39969 ft | 442 kts | 259° |
| 2026-04-07 12:02 | 41.11026 | 40.57924 | 39963 ft | 442 kts | 259° |
| 2026-04-07 12:03 | 41.09873 | 40.49899 | 39959 ft | 442 kts | 259° |
| 2026-04-07 12:03 | 41.08715 | 40.41883 | 39958 ft | 442 kts | 259° |
| 2026-04-07 12:04 | 41.07551 | 40.33863 | 39960 ft | 442 kts | 259° |
| 2026-04-07 12:04 | 41.06381 | 40.25843 | 39955 ft | 442 kts | 259° |
| 2026-04-07 12:05 | 41.05206 | 40.17826 | 39956 ft | 442 kts | 259° |
| 2026-04-07 12:05 | 41.04034 | 40.09869 | 39963 ft | 442 kts | 259° |
| 2026-04-07 12:06 | 41.02851 | 40.01871 | 39949 ft | 441 kts | 259° |
| 2026-04-07 12:06 | 41.01661 | 39.93882 | 39960 ft | 441 kts | 259° |
| 2026-04-07 12:07 | 41.00695 | 39.85863 | 39961 ft | 440 kts | 264° |
| 2026-04-07 12:07 | 41.00306 | 39.77755 | 39964 ft | 441 kts | 269° |
| 2026-04-07 12:08 | 41.00510 | 39.69624 | 39962 ft | 441 kts | 274° |
| 2026-04-07 12:08 | 41.01212 | 39.61545 | 39974 ft | 441 kts | 276° |
| 2026-04-07 12:09 | 41.01981 | 39.53510 | 39962 ft | 441 kts | 276° |
| 2026-04-07 12:09 | 41.02746 | 39.45457 | 39947 ft | 440 kts | 276° |
| 2026-04-07 12:10 | 41.03507 | 39.37402 | 39950 ft | 440 kts | 276° |
| 2026-04-07 12:10 | 41.04261 | 39.29355 | 39938 ft | 440 kts | 276° |
| 2026-04-07 12:11 | 41.05011 | 39.21297 | 39937 ft | 440 kts | 276° |
| 2026-04-07 12:11 | 41.05754 | 39.13230 | 39942 ft | 440 kts | 276° |
| 2026-04-07 12:12 | 41.06498 | 39.05166 | 39937 ft | 440 kts | 276° |
| 2026-04-07 12:12 | 41.07234 | 38.97169 | 39930 ft | 440 kts | 276° |
| 2026-04-07 12:13 | 41.07973 | 38.89104 | 39929 ft | 440 kts | 276° |
| 2026-04-07 12:13 | 41.08706 | 38.81038 | 39938 ft | 440 kts | 276° |
| 2026-04-07 12:14 | 41.09432 | 38.72975 | 39939 ft | 439 kts | 275° |
| 2026-04-07 12:14 | 41.10142 | 38.64921 | 39946 ft | 439 kts | 275° |
| 2026-04-07 12:15 | 41.10832 | 38.56854 | 39958 ft | 439 kts | 275° |
| 2026-04-07 12:15 | 41.11507 | 38.48780 | 39970 ft | 439 kts | 275° |
| 2026-04-07 12:16 | 41.12175 | 38.40768 | 39952 ft | 439 kts | 275° |
| 2026-04-07 12:16 | 41.12842 | 38.32709 | 39949 ft | 439 kts | 275° |
| 2026-04-07 12:17 | 41.13502 | 38.24652 | 39949 ft | 439 kts | 275° |
| 2026-04-07 12:17 | 41.14161 | 38.16586 | 39945 ft | 439 kts | 275° |
| 2026-04-07 12:18 | 41.14816 | 38.08528 | 39944 ft | 438 kts | 275° |
| 2026-04-07 12:18 | 41.15467 | 38.00477 | 39938 ft | 438 kts | 275° |
| 2026-04-07 12:19 | 41.16107 | 37.92465 | 39939 ft | 438 kts | 275° |
| 2026-04-07 12:19 | 41.16761 | 37.84405 | 39940 ft | 438 kts | 275° |
| 2026-04-07 12:20 | 41.17453 | 37.76349 | 39943 ft | 438 kts | 275° |
| 2026-04-07 12:20 | 41.18137 | 37.68298 | 39942 ft | 438 kts | 275° |
| 2026-04-07 12:21 | 41.18749 | 37.60242 | 39943 ft | 437 kts | 273° |
| 2026-04-07 12:21 | 41.19230 | 37.52177 | 39945 ft | 437 kts | 274° |
| 2026-04-07 12:22 | 41.19831 | 37.44112 | 39936 ft | 437 kts | 275° |
| 2026-04-07 12:22 | 41.20432 | 37.36059 | 39952 ft | 437 kts | 274° |
| 2026-04-07 12:23 | 41.21023 | 37.28060 | 39947 ft | 437 kts | 274° |
| 2026-04-07 12:23 | 41.21614 | 37.20020 | 39948 ft | 436 kts | 275° |
| 2026-04-07 12:24 | 41.22238 | 37.11989 | 39952 ft | 436 kts | 275° |
| 2026-04-07 12:24 | 41.22862 | 37.03945 | 39952 ft | 436 kts | 275° |
| 2026-04-07 12:25 | 41.23478 | 36.95922 | 39961 ft | 436 kts | 275° |
| 2026-04-07 12:25 | 41.24089 | 36.87892 | 39957 ft | 436 kts | 275° |
| 2026-04-07 12:26 | 41.24689 | 36.79917 | 39959 ft | 436 kts | 275° |
| 2026-04-07 12:26 | 41.25289 | 36.71881 | 39961 ft | 435 kts | 275° |
| 2026-04-07 12:27 | 41.25884 | 36.63857 | 39961 ft | 435 kts | 275° |
| 2026-04-07 12:27 | 41.26809 | 36.55892 | 39955 ft | 436 kts | 280° |
| 2026-04-07 12:28 | 41.28303 | 36.48057 | 39961 ft | 437 kts | 285° |
| 2026-04-07 12:29 | 41.31196 | 36.36519 | 39960 ft | 438 kts | 287° |
| 2026-04-07 12:29 | 41.33148 | 36.28836 | 39971 ft | 437 kts | 287° |
| 2026-04-07 12:30 | 41.35091 | 36.21163 | 39962 ft | 436 kts | 287° |
| 2026-04-07 12:30 | 41.37012 | 36.13554 | 39964 ft | 436 kts | 286° |
| 2026-04-07 12:31 | 41.38942 | 36.05876 | 39963 ft | 436 kts | 286° |
| 2026-04-07 12:31 | 41.40866 | 35.98205 | 39960 ft | 436 kts | 286° |
| 2026-04-07 12:32 | 41.42786 | 35.90526 | 39956 ft | 435 kts | 286° |
| 2026-04-07 12:32 | 41.44685 | 35.82904 | 39955 ft | 435 kts | 286° |
| 2026-04-07 12:33 | 41.46596 | 35.75211 | 39962 ft | 436 kts | 286° |
| 2026-04-07 12:33 | 41.48495 | 35.67536 | 39956 ft | 435 kts | 286° |
| 2026-04-07 12:34 | 41.50392 | 35.59848 | 39962 ft | 436 kts | 286° |
| 2026-04-07 12:34 | 41.52282 | 35.52164 | 39963 ft | 435 kts | 286° |
| 2026-04-07 12:35 | 41.54165 | 35.44478 | 39954 ft | 435 kts | 286° |
| 2026-04-07 12:35 | 41.56050 | 35.36768 | 39966 ft | 436 kts | 286° |
| 2026-04-07 12:36 | 41.57932 | 35.29038 | 39922 ft | 437 kts | 286° |
| 2026-04-07 12:36 | 41.59806 | 35.21309 | 39935 ft | 437 kts | 286° |
| 2026-04-07 12:37 | 41.61667 | 35.13620 | 39950 ft | 437 kts | 286° |
| 2026-04-07 12:37 | 41.63534 | 35.05876 | 39955 ft | 437 kts | 286° |
| 2026-04-07 12:38 | 41.65391 | 34.98143 | 39954 ft | 436 kts | 286° |
| 2026-04-07 12:38 | 41.66936 | 34.91702 | 39956 ft | 437 kts | 286° |
| 2026-04-07 12:39 | 41.68789 | 34.83947 | 39966 ft | 437 kts | 286° |
| 2026-04-07 12:39 | 41.70634 | 34.76198 | 39980 ft | 436 kts | 286° |
| 2026-04-07 12:40 | 41.72478 | 34.68427 | 39981 ft | 438 kts | 286° |
| 2026-04-07 12:40 | 41.74320 | 34.60644 | 39993 ft | 438 kts | 286° |
| 2026-04-07 12:41 | 41.76153 | 34.52843 | 39985 ft | 438 kts | 286° |
| 2026-04-07 12:41 | 41.77976 | 34.45050 | 40009 ft | 438 kts | 286° |
| 2026-04-07 12:42 | 41.79782 | 34.37312 | 40013 ft | 432 kts | 286° |
| 2026-04-07 12:42 | 41.81566 | 34.29655 | 40009 ft | 432 kts | 286° |
| 2026-04-07 12:43 | 41.83368 | 34.21902 | 40020 ft | 431 kts | 286° |
| 2026-04-07 12:43 | 41.85136 | 34.14270 | 40035 ft | 431 kts | 286° |
| 2026-04-07 12:44 | 41.86899 | 34.06617 | 40030 ft | 427 kts | 286° |
| 2026-04-07 12:44 | 41.88652 | 33.98999 | 40045 ft | 426 kts | 286° |
| 2026-04-07 12:45 | 41.90399 | 33.91380 | 40046 ft | 426 kts | 286° |
| 2026-04-07 12:45 | 41.92145 | 33.83753 | 40054 ft | 426 kts | 286° |
| 2026-04-07 12:46 | 41.93868 | 33.76177 | 40066 ft | 426 kts | 286° |
| 2026-04-07 12:46 | 41.95527 | 33.68539 | 40064 ft | 425 kts | 284° |
| 2026-04-07 12:47 | 41.97018 | 33.60827 | 40070 ft | 425 kts | 284° |
| 2026-04-07 12:47 | 41.98501 | 33.53116 | 40072 ft | 425 kts | 284° |
| 2026-04-07 12:48 | 41.99986 | 33.45397 | 40086 ft | 426 kts | 283° |
| 2026-04-07 12:48 | 42.01460 | 33.37658 | 40078 ft | 426 kts | 283° |
| 2026-04-07 12:49 | 42.02938 | 33.29906 | 40090 ft | 426 kts | 283° |
| 2026-04-07 12:49 | 42.04409 | 33.22166 | 40094 ft | 426 kts | 283° |
| 2026-04-07 12:50 | 42.05876 | 33.14417 | 40096 ft | 428 kts | 283° |
| 2026-04-07 12:50 | 42.07345 | 33.06634 | 40097 ft | 429 kts | 284° |
| 2026-04-07 12:51 | 42.08917 | 32.98920 | 40099 ft | 429 kts | 284° |
| 2026-04-07 12:51 | 42.10514 | 32.91168 | 40104 ft | 429 kts | 284° |
| 2026-04-07 12:52 | 42.12101 | 32.83401 | 40104 ft | 430 kts | 284° |
| 2026-04-07 12:52 | 42.13690 | 32.75581 | 40102 ft | 433 kts | 284° |
| 2026-04-07 12:53 | 42.15277 | 32.67743 | 40102 ft | 433 kts | 284° |
| 2026-04-07 12:53 | 42.16856 | 32.59895 | 40104 ft | 433 kts | 284° |
| 2026-04-07 12:54 | 42.18416 | 32.52085 | 40104 ft | 433 kts | 284° |
| 2026-04-07 12:54 | 42.19980 | 32.44235 | 40106 ft | 433 kts | 284° |
| 2026-04-07 12:55 | 42.21542 | 32.36373 | 40107 ft | 433 kts | 284° |
| 2026-04-07 12:55 | 42.23102 | 32.28503 | 40110 ft | 433 kts | 284° |
| 2026-04-07 12:56 | 42.24651 | 32.20639 | 40110 ft | 433 kts | 284° |
| 2026-04-07 12:56 | 42.26196 | 32.12741 | 40113 ft | 436 kts | 283° |
| 2026-04-07 12:57 | 42.27744 | 32.04794 | 40108 ft | 436 kts | 283° |
| 2026-04-07 12:57 | 42.29292 | 31.96848 | 40107 ft | 437 kts | 283° |
| 2026-04-07 12:58 | 42.30836 | 31.88903 | 40110 ft | 437 kts | 283° |
| 2026-04-07 12:58 | 42.32357 | 31.81008 | 40114 ft | 435 kts | 284° |
| 2026-04-07 12:59 | 42.33889 | 31.73080 | 40110 ft | 435 kts | 284° |
| 2026-04-07 12:59 | 42.35415 | 31.65151 | 40104 ft | 436 kts | 284° |
| 2026-04-07 13:00 | 42.36938 | 31.57195 | 40111 ft | 436 kts | 284° |
| 2026-04-07 13:00 | 42.38436 | 31.49307 | 40116 ft | 434 kts | 284° |
| 2026-04-07 13:01 | 42.39938 | 31.41406 | 40115 ft | 433 kts | 284° |
| 2026-04-07 13:01 | 42.41437 | 31.33493 | 40110 ft | 433 kts | 284° |
| 2026-04-07 13:02 | 42.42927 | 31.25593 | 40112 ft | 433 kts | 284° |
| 2026-04-07 13:02 | 42.44359 | 31.17937 | 40115 ft | 432 kts | 285° |
| 2026-04-07 13:03 | 42.45830 | 31.10071 | 40112 ft | 430 kts | 285° |
| 2026-04-07 13:03 | 42.47289 | 31.02207 | 40112 ft | 429 kts | 285° |
| 2026-04-07 13:04 | 42.48743 | 30.94336 | 40112 ft | 429 kts | 285° |
| 2026-04-07 13:04 | 42.50180 | 30.86524 | 40111 ft | 429 kts | 285° |
| 2026-04-07 13:05 | 42.51617 | 30.78662 | 40112 ft | 427 kts | 285° |
| 2026-04-07 13:05 | 42.53048 | 30.70838 | 40112 ft | 427 kts | 285° |
| 2026-04-07 13:06 | 42.54476 | 30.62996 | 40112 ft | 427 kts | 285° |
| 2026-04-07 13:06 | 42.55894 | 30.55170 | 40112 ft | 426 kts | 285° |
| 2026-04-07 13:07 | 42.57293 | 30.47408 | 40112 ft | 424 kts | 285° |
| 2026-04-07 13:07 | 42.58704 | 30.39608 | 40109 ft | 424 kts | 287° |
| 2026-04-07 13:08 | 42.60526 | 30.32002 | 40110 ft | 422 kts | 292° |
| 2026-04-07 13:08 | 42.62959 | 30.24749 | 40112 ft | 421 kts | 298° |
| 2026-04-07 13:09 | 42.65976 | 30.17922 | 40108 ft | 421 kts | 304° |
| 2026-04-07 13:09 | 42.69448 | 30.11558 | 40109 ft | 421 kts | 307° |
| 2026-04-07 13:10 | 42.73017 | 30.05235 | 40109 ft | 421 kts | 307° |
| 2026-04-07 13:10 | 42.76584 | 29.98916 | 40110 ft | 421 kts | 307° |
| 2026-04-07 13:11 | 42.80148 | 29.92587 | 40105 ft | 420 kts | 307° |
| 2026-04-07 13:11 | 42.83702 | 29.86270 | 40109 ft | 420 kts | 307° |
| 2026-04-07 13:12 | 42.87257 | 29.79936 | 40109 ft | 419 kts | 307° |
| 2026-04-07 13:12 | 42.90803 | 29.73603 | 40107 ft | 419 kts | 307° |
| 2026-04-07 13:13 | 42.94343 | 29.67266 | 40101 ft | 419 kts | 307° |
| 2026-04-07 13:13 | 42.97878 | 29.60930 | 40111 ft | 418 kts | 307° |
| 2026-04-07 13:14 | 43.01405 | 29.54593 | 40108 ft | 418 kts | 307° |
| 2026-04-07 13:14 | 43.04923 | 29.48256 | 40099 ft | 418 kts | 307° |
| 2026-04-07 13:15 | 43.08441 | 29.41907 | 40097 ft | 418 kts | 307° |
| 2026-04-07 13:15 | 43.11952 | 29.35556 | 40098 ft | 418 kts | 307° |
| 2026-04-07 13:16 | 43.15436 | 29.29240 | 40093 ft | 418 kts | 307° |
| 2026-04-07 13:16 | 43.18942 | 29.22872 | 40093 ft | 418 kts | 307° |
| 2026-04-07 13:17 | 43.22434 | 29.16508 | 40090 ft | 417 kts | 307° |
| 2026-04-07 13:17 | 43.25922 | 29.10148 | 40088 ft | 416 kts | 307° |
| 2026-04-07 13:18 | 43.29402 | 29.03788 | 40090 ft | 416 kts | 307° |
| 2026-04-07 13:18 | 43.32880 | 28.97417 | 40086 ft | 416 kts | 307° |
| 2026-04-07 13:19 | 43.36353 | 28.91035 | 40077 ft | 417 kts | 307° |
| 2026-04-07 13:19 | 43.39807 | 28.84686 | 40094 ft | 416 kts | 307° |
| 2026-04-07 13:20 | 43.43269 | 28.78301 | 40083 ft | 415 kts | 307° |
| 2026-04-07 13:20 | 43.46725 | 28.71912 | 40081 ft | 415 kts | 307° |
| 2026-04-07 13:21 | 43.50181 | 28.65508 | 40068 ft | 416 kts | 307° |
| 2026-04-07 13:21 | 43.53643 | 28.59084 | 40068 ft | 417 kts | 307° |
| 2026-04-07 13:22 | 43.57098 | 28.52657 | 40071 ft | 417 kts | 307° |
| 2026-04-07 13:22 | 43.60528 | 28.46262 | 40063 ft | 416 kts | 307° |
| 2026-04-07 13:23 | 43.63970 | 28.39824 | 40061 ft | 415 kts | 307° |
| 2026-04-07 13:23 | 43.67396 | 28.33414 | 40057 ft | 415 kts | 307° |
| 2026-04-07 13:24 | 43.70824 | 28.26981 | 40055 ft | 414 kts | 307° |
| 2026-04-07 13:24 | 43.74245 | 28.20548 | 40053 ft | 414 kts | 307° |
| 2026-04-07 13:25 | 43.77084 | 28.15194 | 40043 ft | 414 kts | 307° |
| 2026-04-07 13:25 | 43.80492 | 28.08760 | 40061 ft | 413 kts | 307° |
| 2026-04-07 13:26 | 43.83892 | 28.02331 | 40045 ft | 413 kts | 307° |
| 2026-04-07 13:26 | 43.87279 | 27.95905 | 40045 ft | 412 kts | 307° |
| 2026-04-07 13:27 | 43.90664 | 27.89468 | 40037 ft | 412 kts | 307° |
| 2026-04-07 13:27 | 43.94020 | 27.83073 | 40040 ft | 412 kts | 307° |
| 2026-04-07 13:28 | 43.97416 | 27.76592 | 40044 ft | 412 kts | 307° |
| 2026-04-07 13:28 | 44.00759 | 27.70196 | 40041 ft | 412 kts | 307° |
| 2026-04-07 13:29 | 44.04123 | 27.63744 | 40029 ft | 411 kts | 308° |
| 2026-04-07 13:29 | 44.07484 | 27.57285 | 40039 ft | 412 kts | 308° |
| 2026-04-07 13:30 | 44.10843 | 27.50817 | 40040 ft | 412 kts | 307° |
| 2026-04-07 13:30 | 44.14198 | 27.44339 | 40041 ft | 412 kts | 307° |
| 2026-04-07 13:31 | 44.17547 | 27.37862 | 40027 ft | 411 kts | 307° |
| 2026-04-07 13:31 | 44.20887 | 27.31381 | 40039 ft | 410 kts | 308° |
| 2026-04-07 13:32 | 44.24221 | 27.24911 | 40046 ft | 410 kts | 307° |
| 2026-04-07 13:32 | 44.27530 | 27.18460 | 40039 ft | 410 kts | 307° |
| 2026-04-07 13:33 | 44.30851 | 27.11975 | 40036 ft | 410 kts | 307° |
| 2026-04-07 13:33 | 44.35833 | 27.02220 | 40033 ft | 411 kts | 307° |
| 2026-04-07 13:34 | 44.39150 | 26.95712 | 40037 ft | 410 kts | 307° |
| 2026-04-07 13:34 | 44.42465 | 26.89192 | 40036 ft | 410 kts | 307° |
| 2026-04-07 13:35 | 44.45778 | 26.82661 | 40033 ft | 411 kts | 307° |
| 2026-04-07 13:35 | 44.49086 | 26.76128 | 40030 ft | 411 kts | 307° |
| 2026-04-07 13:36 | 44.52391 | 26.69587 | 40031 ft | 411 kts | 307° |
| 2026-04-07 13:36 | 44.55667 | 26.63086 | 40028 ft | 411 kts | 307° |
| 2026-04-07 13:37 | 44.58976 | 26.56531 | 40027 ft | 410 kts | 308° |
| 2026-04-07 13:37 | 44.62453 | 26.50180 | 40022 ft | 410 kts | 309° |
| 2026-04-07 13:38 | 44.65964 | 26.43858 | 40024 ft | 410 kts | 309° |
| 2026-04-07 13:38 | 44.69472 | 26.37522 | 40018 ft | 410 kts | 309° |
| 2026-04-07 13:39 | 44.72977 | 26.31179 | 40016 ft | 410 kts | 309° |
| 2026-04-07 13:39 | 44.76481 | 26.24821 | 40012 ft | 410 kts | 309° |
| 2026-04-07 13:40 | 44.79951 | 26.18517 | 40010 ft | 409 kts | 309° |
| 2026-04-07 13:40 | 44.83441 | 26.12164 | 40011 ft | 409 kts | 309° |
| 2026-04-07 13:41 | 44.86927 | 26.05804 | 40007 ft | 409 kts | 309° |
| 2026-04-07 13:41 | 44.90410 | 25.99432 | 39986 ft | 409 kts | 310° |
| 2026-04-07 13:42 | 44.93878 | 25.93069 | 40001 ft | 408 kts | 310° |
| 2026-04-07 13:42 | 44.97314 | 25.86760 | 40002 ft | 408 kts | 310° |
| 2026-04-07 13:43 | 45.00776 | 25.80387 | 40001 ft | 408 kts | 310° |
| 2026-04-07 13:43 | 45.04229 | 25.74017 | 40008 ft | 407 kts | 309° |
| 2026-04-07 13:44 | 45.07672 | 25.67643 | 39993 ft | 407 kts | 310° |
| 2026-04-07 13:44 | 45.11109 | 25.61273 | 40000 ft | 407 kts | 310° |
| 2026-04-07 13:45 | 45.14548 | 25.54885 | 40007 ft | 407 kts | 310° |
| 2026-04-07 13:45 | 45.17982 | 25.48493 | 40007 ft | 407 kts | 309° |
| 2026-04-07 13:46 | 45.21405 | 25.42100 | 39990 ft | 407 kts | 310° |
| 2026-04-07 13:46 | 45.24813 | 25.35727 | 40010 ft | 408 kts | 310° |
| 2026-04-07 13:47 | 45.28245 | 25.29299 | 40012 ft | 408 kts | 310° |
| 2026-04-07 13:47 | 45.31671 | 25.22863 | 40014 ft | 408 kts | 310° |
| 2026-04-07 13:48 | 45.35088 | 25.16425 | 40012 ft | 408 kts | 310° |
| 2026-04-07 13:48 | 45.38508 | 25.09965 | 40012 ft | 407 kts | 310° |
| 2026-04-07 13:49 | 45.41921 | 25.03519 | 40035 ft | 407 kts | 310° |
| 2026-04-07 13:49 | 45.45322 | 24.97070 | 40024 ft | 407 kts | 310° |
| 2026-04-07 13:50 | 45.48721 | 24.90611 | 40026 ft | 407 kts | 310° |
| 2026-04-07 13:50 | 45.52125 | 24.84124 | 40022 ft | 408 kts | 310° |
| 2026-04-07 13:51 | 45.55513 | 24.77663 | 40041 ft | 408 kts | 310° |
| 2026-04-07 13:51 | 45.58911 | 24.71161 | 40025 ft | 408 kts | 310° |
| 2026-04-07 13:52 | 45.62309 | 24.64646 | 40038 ft | 409 kts | 310° |
| 2026-04-07 13:52 | 45.65707 | 24.58116 | 40023 ft | 409 kts | 310° |
| 2026-04-07 13:53 | 45.69112 | 24.51562 | 40040 ft | 410 kts | 310° |
| 2026-04-07 13:53 | 45.72525 | 24.44978 | 40043 ft | 411 kts | 310° |
| 2026-04-07 13:54 | 45.75927 | 24.38393 | 40044 ft | 411 kts | 310° |
| 2026-04-07 13:54 | 45.79148 | 24.31675 | 40060 ft | 412 kts | 306° |
| 2026-04-07 13:55 | 45.82150 | 24.24645 | 40042 ft | 413 kts | 305° |
| 2026-04-07 13:55 | 45.85147 | 24.17586 | 40041 ft | 414 kts | 305° |
| 2026-04-07 13:56 | 45.88139 | 24.10518 | 40043 ft | 414 kts | 305° |
| 2026-04-07 13:56 | 45.91125 | 24.03448 | 40045 ft | 414 kts | 305° |
| 2026-04-07 13:57 | 45.94109 | 23.96367 | 40047 ft | 414 kts | 305° |
| 2026-04-07 13:57 | 45.97091 | 23.89270 | 40050 ft | 414 kts | 305° |
| 2026-04-07 13:58 | 46.00067 | 23.82172 | 40051 ft | 414 kts | 305° |
| 2026-04-07 13:58 | 46.03038 | 23.75070 | 40054 ft | 414 kts | 305° |
| 2026-04-07 13:59 | 46.05991 | 23.67988 | 40051 ft | 414 kts | 305° |
| 2026-04-07 13:59 | 46.08954 | 23.60868 | 40046 ft | 414 kts | 305° |
| 2026-04-07 14:00 | 46.11916 | 23.53728 | 40049 ft | 414 kts | 305° |
| 2026-04-07 14:00 | 46.14869 | 23.46593 | 40056 ft | 414 kts | 305° |
| 2026-04-07 14:01 | 46.17816 | 23.39451 | 40061 ft | 414 kts | 305° |
| 2026-04-07 14:01 | 46.20760 | 23.32308 | 40043 ft | 413 kts | 304° |
| 2026-04-07 14:02 | 46.23698 | 23.25155 | 40073 ft | 413 kts | 304° |
| 2026-04-07 14:02 | 46.26631 | 23.17991 | 40062 ft | 414 kts | 304° |
| 2026-04-07 14:03 | 46.29564 | 23.10813 | 40064 ft | 414 kts | 304° |
| 2026-04-07 14:03 | 46.32492 | 23.03629 | 40063 ft | 414 kts | 304° |
| 2026-04-07 14:04 | 46.35418 | 22.96433 | 40056 ft | 414 kts | 304° |
| 2026-04-07 14:04 | 46.38317 | 22.89280 | 40067 ft | 414 kts | 304° |
| 2026-04-07 14:05 | 46.41229 | 22.82078 | 40065 ft | 413 kts | 304° |
| 2026-04-07 14:05 | 46.44138 | 22.74868 | 40068 ft | 414 kts | 304° |
| 2026-04-07 14:06 | 46.47042 | 22.67647 | 40062 ft | 413 kts | 304° |
| 2026-04-07 14:06 | 46.49939 | 22.60426 | 40069 ft | 414 kts | 304° |
| 2026-04-07 14:07 | 46.52837 | 22.53187 | 40067 ft | 414 kts | 304° |
| 2026-04-07 14:07 | 46.55725 | 22.45952 | 40073 ft | 413 kts | 304° |
| 2026-04-07 14:08 | 46.58612 | 22.38701 | 40075 ft | 413 kts | 304° |
| 2026-04-07 14:08 | 46.61467 | 22.31513 | 40064 ft | 413 kts | 304° |
| 2026-04-07 14:09 | 46.64345 | 22.24253 | 40068 ft | 413 kts | 304° |
| 2026-04-07 14:09 | 46.67210 | 22.17001 | 40072 ft | 413 kts | 304° |
| 2026-04-07 14:10 | 46.70123 | 22.09794 | 40078 ft | 411 kts | 306° |
| 2026-04-07 14:10 | 46.73352 | 22.02922 | 40052 ft | 410 kts | 308° |
| 2026-04-07 14:11 | 46.76642 | 21.96132 | 40066 ft | 409 kts | 309° |
| 2026-04-07 14:11 | 46.79908 | 21.89384 | 40071 ft | 409 kts | 308° |
| 2026-04-07 14:12 | 46.83190 | 21.82590 | 40073 ft | 409 kts | 308° |
| 2026-04-07 14:12 | 46.86476 | 21.75773 | 40074 ft | 409 kts | 308° |
| 2026-04-07 14:13 | 46.89751 | 21.68962 | 40057 ft | 409 kts | 308° |
| 2026-04-07 14:13 | 46.92473 | 21.63288 | 40068 ft | 409 kts | 308° |
| 2026-04-07 14:14 | 46.95746 | 21.56449 | 40073 ft | 409 kts | 308° |
| 2026-04-07 14:14 | 46.99012 | 21.49611 | 40079 ft | 409 kts | 308° |
| 2026-04-07 14:15 | 47.02279 | 21.42753 | 40084 ft | 409 kts | 308° |
| 2026-04-07 14:15 | 47.05515 | 21.35942 | 40101 ft | 409 kts | 308° |
| 2026-04-07 14:16 | 47.08768 | 21.29078 | 40084 ft | 408 kts | 308° |
| 2026-04-07 14:16 | 47.12011 | 21.22220 | 40087 ft | 408 kts | 308° |
| 2026-04-07 14:17 | 47.15249 | 21.15355 | 40084 ft | 408 kts | 308° |
| 2026-04-07 14:17 | 47.18484 | 21.08480 | 40087 ft | 408 kts | 308° |
| 2026-04-07 14:18 | 47.21716 | 21.01593 | 40085 ft | 408 kts | 308° |
| 2026-04-07 14:18 | 47.24943 | 20.94699 | 40083 ft | 408 kts | 308° |
| 2026-04-07 14:19 | 47.28168 | 20.87793 | 40084 ft | 408 kts | 308° |
| 2026-04-07 14:19 | 47.31385 | 20.80886 | 40086 ft | 408 kts | 308° |
| 2026-04-07 14:20 | 47.34597 | 20.73973 | 40076 ft | 408 kts | 308° |
| 2026-04-07 14:20 | 47.37796 | 20.67072 | 40086 ft | 408 kts | 308° |
| 2026-04-07 14:21 | 47.40998 | 20.60145 | 40088 ft | 408 kts | 308° |
| 2026-04-07 14:21 | 47.44208 | 20.53185 | 40102 ft | 408 kts | 308° |
| 2026-04-07 14:22 | 47.47400 | 20.46243 | 40091 ft | 407 kts | 308° |
| 2026-04-07 14:22 | 47.50583 | 20.39310 | 40076 ft | 407 kts | 308° |
| 2026-04-07 14:23 | 47.53759 | 20.32371 | 40083 ft | 407 kts | 308° |
| 2026-04-07 14:23 | 47.56909 | 20.25468 | 40075 ft | 407 kts | 307° |
| 2026-04-07 14:24 | 47.60081 | 20.18504 | 40079 ft | 407 kts | 307° |
| 2026-04-07 14:24 | 47.63244 | 20.11539 | 40086 ft | 407 kts | 307° |
| 2026-04-07 14:25 | 47.66412 | 20.04552 | 40071 ft | 408 kts | 307° |
| 2026-04-07 14:25 | 47.69560 | 19.97586 | 40081 ft | 408 kts | 307° |
| 2026-04-07 14:26 | 47.72724 | 19.90564 | 40081 ft | 408 kts | 307° |
| 2026-04-07 14:26 | 47.75885 | 19.83533 | 40088 ft | 409 kts | 307° |
| 2026-04-07 14:27 | 47.79046 | 19.76486 | 40088 ft | 409 kts | 307° |
| 2026-04-07 14:27 | 47.82207 | 19.69422 | 40092 ft | 410 kts | 307° |
| 2026-04-07 14:28 | 47.85365 | 19.62342 | 40097 ft | 410 kts | 307° |
| 2026-04-07 14:28 | 47.88521 | 19.55251 | 40095 ft | 410 kts | 307° |
| 2026-04-07 14:29 | 47.91647 | 19.48210 | 40104 ft | 410 kts | 307° |
| 2026-04-07 14:29 | 47.94793 | 19.41106 | 40074 ft | 410 kts | 307° |
| 2026-04-07 14:30 | 47.97940 | 19.33985 | 40097 ft | 411 kts | 307° |
| 2026-04-07 14:30 | 48.01091 | 19.26837 | 40101 ft | 411 kts | 307° |
| 2026-04-07 14:31 | 48.04217 | 19.19721 | 40111 ft | 411 kts | 306° |
| 2026-04-07 14:31 | 48.07400 | 19.12615 | 40111 ft | 410 kts | 309° |
| 2026-04-07 14:32 | 48.10855 | 19.05816 | 40093 ft | 410 kts | 310° |
| 2026-04-07 14:32 | 48.14363 | 18.99036 | 40108 ft | 411 kts | 310° |
| 2026-04-07 14:33 | 48.17868 | 18.92247 | 40141 ft | 411 kts | 310° |
| 2026-04-07 14:33 | 48.21359 | 18.85472 | 40121 ft | 410 kts | 310° |
| 2026-04-07 14:34 | 48.24824 | 18.78736 | 40120 ft | 410 kts | 310° |
| 2026-04-07 14:34 | 48.28316 | 18.71933 | 40099 ft | 411 kts | 310° |
| 2026-04-07 14:35 | 48.31816 | 18.65092 | 40123 ft | 412 kts | 310° |
| 2026-04-07 14:35 | 48.35312 | 18.58240 | 40123 ft | 413 kts | 310° |
| 2026-04-07 14:36 | 48.38805 | 18.51378 | 40132 ft | 413 kts | 310° |
| 2026-04-07 14:36 | 48.42268 | 18.44557 | 40129 ft | 412 kts | 310° |
| 2026-04-07 14:37 | 48.45755 | 18.37672 | 40124 ft | 414 kts | 310° |
| 2026-04-07 14:37 | 48.49256 | 18.30743 | 40140 ft | 415 kts | 310° |
| 2026-04-07 14:38 | 48.52750 | 18.23806 | 40152 ft | 414 kts | 310° |
| 2026-04-07 14:38 | 48.56235 | 18.16872 | 40149 ft | 414 kts | 309° |
| 2026-04-07 14:39 | 48.61455 | 18.06453 | 40125 ft | 414 kts | 309° |
| 2026-04-07 14:40 | 48.64914 | 17.99529 | 40146 ft | 415 kts | 309° |
| 2026-04-07 14:40 | 48.68396 | 17.92538 | 40149 ft | 416 kts | 309° |
| 2026-04-07 14:41 | 48.71880 | 17.85525 | 40154 ft | 416 kts | 309° |
| 2026-04-07 14:41 | 48.75357 | 17.78510 | 40157 ft | 416 kts | 309° |
| 2026-04-07 14:42 | 48.78830 | 17.71483 | 40148 ft | 416 kts | 309° |
| 2026-04-07 14:42 | 48.82312 | 17.64425 | 40162 ft | 418 kts | 309° |
| 2026-04-07 14:43 | 48.85765 | 17.57394 | 40183 ft | 416 kts | 309° |
| 2026-04-07 14:43 | 48.89228 | 17.50337 | 40175 ft | 416 kts | 309° |
| 2026-04-07 14:44 | 48.92690 | 17.43272 | 40178 ft | 416 kts | 309° |
| 2026-04-07 14:44 | 48.96136 | 17.36209 | 40181 ft | 416 kts | 309° |
| 2026-04-07 14:45 | 48.99488 | 17.29009 | 40180 ft | 417 kts | 306° |
| 2026-04-07 14:45 | 49.02407 | 17.21322 | 40178 ft | 419 kts | 301° |
| 2026-04-07 14:46 | 49.04842 | 17.13207 | 40176 ft | 422 kts | 296° |
| 2026-04-07 14:46 | 49.07050 | 17.04908 | 40173 ft | 422 kts | 296° |
| 2026-04-07 14:47 | 49.09244 | 16.96590 | 40154 ft | 422 kts | 296° |
| 2026-04-07 14:47 | 49.11438 | 16.88231 | 40165 ft | 423 kts | 296° |
| 2026-04-07 14:48 | 49.13624 | 16.79869 | 40181 ft | 423 kts | 296° |
| 2026-04-07 14:48 | 49.15790 | 16.71550 | 40180 ft | 423 kts | 295° |
| 2026-04-07 14:49 | 49.17966 | 16.63166 | 40180 ft | 423 kts | 295° |
| 2026-04-07 14:49 | 49.20133 | 16.54783 | 40174 ft | 424 kts | 295° |
| 2026-04-07 14:50 | 49.22303 | 16.46363 | 40180 ft | 425 kts | 295° |
| 2026-04-07 14:50 | 49.24466 | 16.37935 | 40180 ft | 425 kts | 295° |
| 2026-04-07 14:51 | 49.26621 | 16.29505 | 40201 ft | 424 kts | 295° |
| 2026-04-07 14:51 | 49.28767 | 16.21082 | 40191 ft | 424 kts | 295° |
| 2026-04-07 14:52 | 49.30910 | 16.12647 | 40200 ft | 425 kts | 295° |
| 2026-04-07 14:52 | 49.33039 | 16.04231 | 40193 ft | 425 kts | 295° |
| 2026-04-07 14:53 | 49.35175 | 15.95751 | 40196 ft | 425 kts | 295° |
| 2026-04-07 14:53 | 49.37305 | 15.87265 | 40215 ft | 425 kts | 295° |
| 2026-04-07 14:54 | 49.39427 | 15.78778 | 40178 ft | 425 kts | 295° |
| 2026-04-07 14:54 | 49.41549 | 15.70266 | 40207 ft | 427 kts | 295° |
| 2026-04-07 14:55 | 49.43667 | 15.61729 | 40209 ft | 427 kts | 295° |
| 2026-04-07 14:55 | 49.45779 | 15.53179 | 40215 ft | 427 kts | 295° |
| 2026-04-07 14:56 | 49.47887 | 15.44620 | 40219 ft | 427 kts | 295° |
| 2026-04-07 14:56 | 49.49990 | 15.36050 | 40199 ft | 427 kts | 294° |
| 2026-04-07 14:57 | 49.52071 | 15.27532 | 40217 ft | 427 kts | 294° |
| 2026-04-07 14:57 | 49.54159 | 15.18951 | 40226 ft | 427 kts | 294° |
| 2026-04-07 14:58 | 49.56244 | 15.10351 | 40228 ft | 428 kts | 294° |
| 2026-04-07 14:58 | 49.58319 | 15.01758 | 40229 ft | 428 kts | 294° |
| 2026-04-07 14:59 | 49.60388 | 14.93156 | 40221 ft | 427 kts | 294° |
| 2026-04-07 14:59 | 49.62452 | 14.84545 | 40230 ft | 427 kts | 294° |
| 2026-04-07 15:00 | 49.64506 | 14.75939 | 40231 ft | 427 kts | 294° |
| 2026-04-07 15:00 | 49.66555 | 14.67320 | 40244 ft | 427 kts | 294° |
| 2026-04-07 15:01 | 49.68598 | 14.58695 | 40238 ft | 427 kts | 294° |
| 2026-04-07 15:01 | 49.70623 | 14.50113 | 40242 ft | 428 kts | 294° |
| 2026-04-07 15:02 | 49.72657 | 14.41452 | 40243 ft | 428 kts | 294° |
| 2026-04-07 15:02 | 49.74684 | 14.32787 | 40241 ft | 428 kts | 294° |
| 2026-04-07 15:03 | 49.76706 | 14.24110 | 40240 ft | 428 kts | 293° |
| 2026-04-07 15:03 | 49.78395 | 14.16831 | 40242 ft | 427 kts | 294° |
| 2026-04-07 15:04 | 49.80391 | 14.08207 | 40240 ft | 428 kts | 293° |
| 2026-04-07 15:04 | 49.82397 | 13.99503 | 40248 ft | 428 kts | 293° |
| 2026-04-07 15:05 | 49.84393 | 13.90802 | 40250 ft | 428 kts | 293° |
| 2026-04-07 15:05 | 49.86389 | 13.82069 | 40251 ft | 428 kts | 293° |
| 2026-04-07 15:06 | 49.88373 | 13.73348 | 40248 ft | 428 kts | 293° |
| 2026-04-07 15:06 | 49.90355 | 13.64612 | 40249 ft | 429 kts | 293° |
| 2026-04-07 15:07 | 49.92330 | 13.55858 | 40257 ft | 429 kts | 293° |
| 2026-04-07 15:07 | 49.94287 | 13.47147 | 40256 ft | 429 kts | 293° |
| 2026-04-07 15:08 | 49.96251 | 13.38376 | 40260 ft | 429 kts | 292° |
| 2026-04-07 15:08 | 49.98205 | 13.29607 | 40262 ft | 429 kts | 292° |
| 2026-04-07 15:09 | 50.00159 | 13.20808 | 40266 ft | 429 kts | 292° |
| 2026-04-07 15:09 | 50.02105 | 13.12000 | 40264 ft | 429 kts | 292° |
| 2026-04-07 15:10 | 50.04041 | 13.03207 | 40264 ft | 429 kts | 292° |
| 2026-04-07 15:10 | 50.05959 | 12.94456 | 40264 ft | 429 kts | 292° |
| 2026-04-07 15:11 | 50.07883 | 12.85647 | 40250 ft | 429 kts | 292° |
| 2026-04-07 15:11 | 50.09798 | 12.76838 | 40263 ft | 429 kts | 292° |
| 2026-04-07 15:12 | 50.11706 | 12.68023 | 40271 ft | 429 kts | 292° |
| 2026-04-07 15:12 | 50.13609 | 12.59197 | 40277 ft | 429 kts | 292° |
| 2026-04-07 15:13 | 50.15506 | 12.50369 | 40285 ft | 429 kts | 292° |
| 2026-04-07 15:13 | 50.17397 | 12.41536 | 40285 ft | 428 kts | 292° |
| 2026-04-07 15:14 | 50.19281 | 12.32700 | 40298 ft | 428 kts | 292° |
| 2026-04-07 15:14 | 50.21291 | 12.23942 | 40300 ft | 427 kts | 293° |
| 2026-04-07 15:15 | 50.23310 | 12.15236 | 40294 ft | 428 kts | 293° |
| 2026-04-07 15:15 | 50.25319 | 12.06474 | 40301 ft | 427 kts | 293° |
| 2026-04-07 15:16 | 50.27323 | 11.97705 | 40283 ft | 427 kts | 293° |
| 2026-04-07 15:16 | 50.29326 | 11.88958 | 40286 ft | 427 kts | 293° |
| 2026-04-07 15:17 | 50.31328 | 11.80193 | 40287 ft | 427 kts | 293° |
| 2026-04-07 15:17 | 50.33312 | 11.71475 | 40290 ft | 427 kts | 292° |
| 2026-04-07 15:18 | 50.35305 | 11.62690 | 40293 ft | 427 kts | 292° |
| 2026-04-07 15:18 | 50.37294 | 11.53903 | 40287 ft | 427 kts | 292° |
| 2026-04-07 15:19 | 50.39272 | 11.45106 | 40297 ft | 427 kts | 292° |
| 2026-04-07 15:19 | 50.41241 | 11.36310 | 40305 ft | 427 kts | 292° |
| 2026-04-07 15:20 | 50.43201 | 11.27501 | 40305 ft | 427 kts | 292° |
| 2026-04-07 15:20 | 50.45151 | 11.18683 | 40307 ft | 427 kts | 292° |
| 2026-04-07 15:21 | 50.47087 | 11.09915 | 40300 ft | 428 kts | 291° |
| 2026-04-07 15:21 | 50.49031 | 11.01066 | 40304 ft | 428 kts | 291° |
| 2026-04-07 15:22 | 50.50964 | 10.92218 | 40299 ft | 428 kts | 289° |
| 2026-04-07 15:22 | 50.51852 | 10.82971 | 39870 ft | 428 kts | 274° |
| 2026-04-07 15:22 | 50.51757 | 10.78267 | 39342 ft | 429 kts | 271° |
| 2026-04-07 15:23 | 50.51611 | 10.73591 | 38940 ft | 425 kts | 271° |
| 2026-04-07 15:23 | 50.51466 | 10.69027 | 38430 ft | 422 kts | 271° |
| 2026-04-07 15:23 | 50.51321 | 10.64402 | 37763 ft | 422 kts | 271° |
| 2026-04-07 15:23 | 50.51176 | 10.59763 | 37013 ft | 425 kts | 271° |
| 2026-04-07 15:24 | 50.51032 | 10.55104 | 36289 ft | 428 kts | 271° |
| 2026-04-07 15:24 | 50.50887 | 10.50408 | 35647 ft | 429 kts | 271° |
| 2026-04-07 15:24 | 50.50740 | 10.45699 | 35342 ft | 432 kts | 271° |
| 2026-04-07 15:25 | 50.50442 | 10.36219 | 35300 ft | 435 kts | 271° |
| 2026-04-07 15:25 | 50.50135 | 10.26706 | 35140 ft | 436 kts | 271° |
| 2026-04-07 15:25 | 50.49980 | 10.21928 | 34684 ft | 437 kts | 270° |
| 2026-04-07 15:26 | 50.49823 | 10.17131 | 33896 ft | 441 kts | 270° |
| 2026-04-07 15:26 | 50.49659 | 10.12289 | 33083 ft | 444 kts | 270° |
| 2026-04-07 15:26 | 50.49491 | 10.07424 | 32296 ft | 446 kts | 271° |
| 2026-04-07 15:26 | 50.49320 | 10.02538 | 31523 ft | 449 kts | 271° |
| 2026-04-07 15:27 | 50.49148 | 9.97641 | 30785 ft | 451 kts | 271° |
| 2026-04-07 15:27 | 50.48977 | 9.92773 | 30020 ft | 454 kts | 271° |
| 2026-04-07 15:27 | 50.48802 | 9.87790 | 29169 ft | 457 kts | 271° |
| 2026-04-07 15:27 | 50.48625 | 9.82780 | 28349 ft | 459 kts | 271° |
| 2026-04-07 15:28 | 50.48443 | 9.77756 | 27559 ft | 459 kts | 270° |
| 2026-04-07 15:28 | 50.48259 | 9.72752 | 26968 ft | 454 kts | 270° |
| 2026-04-07 15:28 | 50.48071 | 9.67828 | 26446 ft | 448 kts | 270° |
| 2026-04-07 15:28 | 50.47815 | 9.62956 | 25823 ft | 447 kts | 266° |
| 2026-04-07 15:29 | 50.47298 | 9.58146 | 25244 ft | 445 kts | 262° |
| 2026-04-07 15:29 | 50.46583 | 9.53418 | 24660 ft | 444 kts | 258° |
| 2026-04-07 15:29 | 50.45719 | 9.48771 | 24093 ft | 441 kts | 256° |
| 2026-04-07 15:29 | 50.44849 | 9.44239 | 23486 ft | 437 kts | 256° |
| 2026-04-07 15:30 | 50.43977 | 9.39681 | 22841 ft | 434 kts | 256° |
| 2026-04-07 15:30 | 50.43116 | 9.35152 | 22217 ft | 431 kts | 256° |
| 2026-04-07 15:30 | 50.42241 | 9.30672 | 21594 ft | 428 kts | 253° |
| 2026-04-07 15:30 | 50.40884 | 9.26494 | 20939 ft | 432 kts | 238° |
| 2026-04-07 15:31 | 50.38898 | 9.22967 | 20388 ft | 433 kts | 224° |
| 2026-04-07 15:31 | 50.36450 | 9.20224 | 19844 ft | 432 kts | 214° |
| 2026-04-07 15:31 | 50.33892 | 9.17772 | 19282 ft | 429 kts | 213° |
| 2026-04-07 15:31 | 50.31338 | 9.15362 | 18701 ft | 427 kts | 213° |
| 2026-04-07 15:32 | 50.28915 | 9.12714 | 18037 ft | 422 kts | 224° |
| 2026-04-07 15:32 | 50.26989 | 9.09313 | 17439 ft | 414 kts | 238° |
| 2026-04-07 15:32 | 50.25645 | 9.05396 | 16869 ft | 406 kts | 250° |
| 2026-04-07 15:32 | 50.24711 | 9.01514 | 16339 ft | 401 kts | 253° |
| 2026-04-07 15:33 | 50.23768 | 8.97352 | 15740 ft | 400 kts | 253° |
| 2026-04-07 15:33 | 50.22843 | 8.93267 | 15164 ft | 397 kts | 253° |
| 2026-04-07 15:33 | 50.21911 | 8.89200 | 14611 ft | 395 kts | 253° |
| 2026-04-07 15:33 | 50.20971 | 8.85146 | 14050 ft | 393 kts | 252° |
| 2026-04-07 15:34 | 50.20029 | 8.81116 | 13486 ft | 389 kts | 252° |
| 2026-04-07 15:34 | 50.19098 | 8.77158 | 13238 ft | 388 kts | 252° |
| 2026-04-07 15:34 | 50.18163 | 8.73194 | 12976 ft | 386 kts | 252° |
| 2026-04-07 15:34 | 50.17240 | 8.69298 | 12622 ft | 378 kts | 252° |
| 2026-04-07 15:35 | 50.16333 | 8.65475 | 12214 ft | 371 kts | 252° |
| 2026-04-07 15:35 | 50.15444 | 8.61731 | 11806 ft | 365 kts | 252° |
| 2026-04-07 15:35 | 50.14564 | 8.58034 | 11394 ft | 360 kts | 252° |
| 2026-04-07 15:35 | 50.13701 | 8.54412 | 10992 ft | 354 kts | 252° |
| 2026-04-07 15:36 | 50.12844 | 8.50827 | 10619 ft | 349 kts | 252° |
| 2026-04-07 15:36 | 50.11997 | 8.47284 | 10239 ft | 344 kts | 252° |
| 2026-04-07 15:36 | 50.11167 | 8.43820 | 9852 ft | 339 kts | 252° |
| 2026-04-07 15:36 | 50.10344 | 8.40404 | 9474 ft | 333 kts | 251° |
| 2026-04-07 15:37 | 50.09531 | 8.37045 | 9059 ft | 327 kts | 251° |
| 2026-04-07 15:37 | 50.08737 | 8.33774 | 8763 ft | 320 kts | 251° |
| 2026-04-07 15:37 | 50.07955 | 8.30550 | 8422 ft | 315 kts | 251° |
| 2026-04-07 15:37 | 50.07184 | 8.27370 | 8093 ft | 311 kts | 251° |
| 2026-04-07 15:38 | 50.06424 | 8.24245 | 7788 ft | 306 kts | 251° |
| 2026-04-07 15:38 | 50.05677 | 8.21166 | 7466 ft | 302 kts | 251° |
| 2026-04-07 15:38 | 50.04943 | 8.18161 | 7177 ft | 297 kts | 250° |
| 2026-04-07 15:38 | 50.04113 | 8.15240 | 6862 ft | 295 kts | 237° |
| 2026-04-07 15:39 | 50.02544 | 8.13181 | 6540 ft | 293 kts | 202° |
| 2026-04-07 15:39 | 50.00598 | 8.12744 | 6136 ft | 287 kts | 168° |
| 2026-04-07 15:39 | 49.98797 | 8.13903 | 5773 ft | 276 kts | 146° |
| 2026-04-07 15:39 | 49.97186 | 8.15452 | 5439 ft | 269 kts | 146° |
| 2026-04-07 15:40 | 49.95788 | 8.17296 | 5052 ft | 260 kts | 122° |
| 2026-04-07 15:40 | 49.95163 | 8.19844 | 4756 ft | 249 kts | 93° |
| 2026-04-07 15:40 | 49.95310 | 8.22483 | 4444 ft | 242 kts | 73° |
| 2026-04-07 15:40 | 49.95866 | 8.24928 | 4173 ft | 239 kts | 66° |
| 2026-04-07 15:41 | 49.96521 | 8.27299 | 3866 ft | 237 kts | 66° |
| 2026-04-07 15:41 | 49.97133 | 8.29653 | 3538 ft | 232 kts | 68° |
| 2026-04-07 15:41 | 49.97694 | 8.31963 | 3189 ft | 224 kts | 69° |
| 2026-04-07 15:41 | 49.98213 | 8.34182 | 2918 ft | 212 kts | 69° |
| 2026-04-07 15:42 | 49.98696 | 8.36264 | 2757 ft | 197 kts | 68° |
| 2026-04-07 15:42 | 49.99152 | 8.38213 | 2477 ft | 186 kts | 68° |
| 2026-04-07 15:42 | 49.99992 | 8.41775 | 1920 ft | 164 kts | 67° |
| 2026-04-07 15:43 | 50.00371 | 8.43371 | 1704 ft | 151 kts | 68° |
| 2026-04-07 15:43 | 50.00721 | 8.44853 | 1481 ft | 141 kts | 68° |
| 2026-04-07 15:43 | 50.01058 | 8.46277 | 1308 ft | 140 kts | 68° |
| 2026-04-07 15:43 | 50.01396 | 8.47698 | 1131 ft | 140 kts | 68° |
| 2026-04-07 15:44 | 50.01732 | 8.49116 | 955 ft | 139 kts | 68° |
| 2026-04-07 15:44 | 50.02067 | 8.50532 | 768 ft | 139 kts | 67° |
| 2026-04-07 15:44 | 50.02409 | 8.51933 | 547 ft | 138 kts | 68° |
| 2026-04-07 15:44 | 50.02737 | 8.53359 | 392 ft | 137 kts | 67° |
| 2026-04-07 15:45 | 50.03056 | 8.54672 | 351 ft | 114 kts | 70° |
| 2026-04-07 15:45 | 50.03271 | 8.55571 | 353 ft | 70 kts | 69° |
| 2026-04-07 15:45 | 50.03419 | 8.56153 | 364 ft | 41 kts | 54° |
| 2026-04-07 15:45 | 50.03576 | 8.56426 | 363 ft | 27 kts | 39° |
| 2026-04-07 15:46 | 50.03674 | 8.56547 | 363 ft | 17 kts | 39° |
| 2026-04-07 15:46 | 50.03716 | 8.56598 | 364 ft | 0 kts | 35° |
| 2026-04-07 15:46 | 50.03720 | 8.56604 | 364 ft | 1 kts | 37° |
| 2026-04-07 15:46 | 50.03733 | 8.56621 | 364 ft | 4 kts | 41° |
| 2026-04-07 15:47 | 50.03774 | 8.56701 | 365 ft | 15 kts | 57° |
| 2026-04-07 15:47 | 50.03826 | 8.56873 | 366 ft | 19 kts | 69° |
| 2026-04-07 15:47 | 50.03875 | 8.57083 | 368 ft | 21 kts | 70° |
| 2026-04-07 15:47 | 50.03929 | 8.57308 | 374 ft | 23 kts | 69° |
| 2026-04-07 15:48 | 50.03967 | 8.57464 | 378 ft | 24 kts | 69° |
| 2026-04-07 15:48 | 50.04028 | 8.57716 | 377 ft | 26 kts | 70° |
| 2026-04-07 15:48 | 50.04090 | 8.57975 | 376 ft | 19 kts | 69° |
| 2026-04-07 15:48 | 50.04135 | 8.58114 | 377 ft | 14 kts | 45° |
| 2026-04-07 15:49 | 50.04195 | 8.58181 | 379 ft | 5 kts | 23° |
| 2026-04-07 15:49 | 50.04245 | 8.58207 | 379 ft | 9 kts | 8° |
| 2026-04-07 15:49 | 50.04268 | 8.58207 | 379 ft | 0 kts | 354° |
| 2026-04-07 15:50 | 50.04270 | 8.58206 | 379 ft | 1 kts | 352° |
| 2026-04-07 15:51 | 50.04291 | 8.58198 | 377 ft | 5 kts | 343° |
| 2026-04-07 15:51 | 50.04331 | 8.58177 | 379 ft | 7 kts | 340° |
| 2026-04-07 15:51 | 50.04391 | 8.58142 | 379 ft | 11 kts | 339° |
| 2026-04-07 15:51 | 50.04483 | 8.58088 | 378 ft | 17 kts | 338° |
| 2026-04-07 15:52 | 50.04521 | 8.57931 | 374 ft | 20 kts | 249° |
| 2026-04-07 15:52 | 50.04470 | 8.57714 | 378 ft | 23 kts | 250° |
| 2026-04-07 15:52 | 50.04410 | 8.57464 | 374 ft | 26 kts | 250° |
| 2026-04-07 15:52 | 50.04343 | 8.57183 | 372 ft | 29 kts | 250° |
| 2026-04-07 15:53 | 50.04270 | 8.56877 | 371 ft | 29 kts | 249° |
| 2026-04-07 15:53 | 50.04204 | 8.56597 | 366 ft | 25 kts | 249° |
| 2026-04-07 15:53 | 50.04176 | 8.56481 | 367 ft | 6 kts | 250° |
| 2026-04-07 15:53 | 50.04157 | 8.56402 | 368 ft | 9 kts | 250° |
| 2026-04-07 15:54 | 50.04135 | 8.56307 | 362 ft | 11 kts | 250° |
| 2026-04-07 15:54 | 50.04103 | 8.56175 | 364 ft | 15 kts | 248° |
| 2026-04-07 15:54 | 50.04076 | 8.56022 | 364 ft | 13 kts | 285° |
| 2026-04-07 15:54 | 50.04160 | 8.55934 | 365 ft | 17 kts | 341° |
| 2026-04-07 15:55 | 50.04269 | 8.55951 | 368 ft | 16 kts | 3° |
| 2026-04-07 15:55 | 50.04381 | 8.55915 | 366 ft | 18 kts | 351° |
| 2026-04-07 15:55 | 50.04509 | 8.55946 | 370 ft | 15 kts | 20° |
| 2026-04-07 15:55 | 50.04578 | 8.56061 | 368 ft | 17 kts | 70° |
| 2026-04-07 15:56 | 50.04622 | 8.56253 | 366 ft | 21 kts | 70° |
| 2026-04-07 15:56 | 50.04673 | 8.56465 | 368 ft | 14 kts | 69° |
| 2026-04-07 15:56 | 50.04706 | 8.56555 | 366 ft | 11 kts | 54° |
| 2026-04-07 15:56 | 50.04733 | 8.56613 | 369 ft | 4 kts | 44° |
| 2026-04-07 15:57 | 50.04762 | 8.56611 | 366 ft | 6 kts | 339° |
| 2026-04-07 15:57 | 50.04796 | 8.56592 | 366 ft | 3 kts | 339° |
| 2026-04-07 15:57 | 50.04800 | 8.56589 | 366 ft | 0 kts | 340° |